﻿<?xml version="1.0" encoding="UTF-8" standalone="no" ?>
<gpx xmlns="http://www.topografix.com/GPX/1/1" creator="CompeGPS" version="1.1" xmlns:xsi="http://www.w3.org/2001/XMLSchema-instance" xsi:schemaLocation="http://www.topografix.com/GPX/1/1 http://www.topografix.com/GPX/1/1/gpx.xsd http://www.garmin.com/xmlschemas/GpxExtensions/v3 http://www.garmin.com/xmlschemas/GpxExtensionsv3.xsd http://www.garmin.com/xmlschemas/TrackPointExtension/v1 http://www.garmin.com/xmlschemas/TrackPointExtensionv1.xsd" xmlns:gpxtpx="http://www.garmin.com/xmlschemas/TrackPointExtension/v1">
  <metadata>
    <link href="http://www.compegps.com">
      <text>CompeGPS TEAM, SL</text>
    </link>
    <time>2019-02-09T19:51:00Z</time>
    <bounds maxlat="42.846871" maxlon="0.498755" minlat="42.813580" minlon="0.457876"/>
  </metadata>
  <trk>
    <name>pouy-louby</name>
    <userMyTwoNav></userMyTwoNav>
    <serialNumber></serialNumber>
    <trkseg>
      <trkpt lat="42.814374" lon="0.487940">
        <ele>1238.5</ele>
        <time>2019-02-09T08:34:05Z</time>
      </trkpt>
      <trkpt lat="42.814447" lon="0.488052">
        <ele>1240.8</ele>
        <time>2019-02-09T08:34:17Z</time>
      </trkpt>
      <trkpt lat="42.814492" lon="0.488079">
        <ele>1243.4</ele>
        <time>2019-02-09T08:35:10Z</time>
      </trkpt>
      <trkpt lat="42.814508" lon="0.488094">
        <ele>1245.4</ele>
        <time>2019-02-09T08:38:01Z</time>
      </trkpt>
      <trkpt lat="42.814598" lon="0.488152">
        <ele>1247.3</ele>
        <time>2019-02-09T08:38:24Z</time>
      </trkpt>
      <trkpt lat="42.814678" lon="0.488216">
        <ele>1251.6</ele>
        <time>2019-02-09T08:38:44Z</time>
      </trkpt>
      <trkpt lat="42.814747" lon="0.488236">
        <ele>1255.6</ele>
        <time>2019-02-09T08:39:07Z</time>
      </trkpt>
      <trkpt lat="42.814802" lon="0.488166">
        <ele>1259.2</ele>
        <time>2019-02-09T08:40:53Z</time>
      </trkpt>
      <trkpt lat="42.814912" lon="0.488164">
        <ele>1259.7</ele>
        <time>2019-02-09T08:41:23Z</time>
      </trkpt>
      <trkpt lat="42.815005" lon="0.488121">
        <ele>1261.2</ele>
        <time>2019-02-09T08:41:37Z</time>
      </trkpt>
      <trkpt lat="42.815108" lon="0.488085">
        <ele>1262.3</ele>
        <time>2019-02-09T08:41:49Z</time>
      </trkpt>
      <trkpt lat="42.815202" lon="0.488061">
        <ele>1263.4</ele>
        <time>2019-02-09T08:42:00Z</time>
      </trkpt>
      <trkpt lat="42.815301" lon="0.488080">
        <ele>1264.6</ele>
        <time>2019-02-09T08:42:11Z</time>
      </trkpt>
      <trkpt lat="42.815399" lon="0.488116">
        <ele>1265.8</ele>
        <time>2019-02-09T08:42:24Z</time>
      </trkpt>
      <trkpt lat="42.815495" lon="0.488151">
        <ele>1267.4</ele>
        <time>2019-02-09T08:42:35Z</time>
      </trkpt>
      <trkpt lat="42.815583" lon="0.488176">
        <ele>1268.5</ele>
        <time>2019-02-09T08:42:46Z</time>
      </trkpt>
      <trkpt lat="42.815659" lon="0.488230">
        <ele>1269.9</ele>
        <time>2019-02-09T08:42:57Z</time>
      </trkpt>
      <trkpt lat="42.815723" lon="0.488315">
        <ele>1272.0</ele>
        <time>2019-02-09T08:43:13Z</time>
      </trkpt>
      <trkpt lat="42.815780" lon="0.488403">
        <ele>1273.7</ele>
        <time>2019-02-09T08:43:28Z</time>
      </trkpt>
      <trkpt lat="42.815826" lon="0.488506">
        <ele>1275.2</ele>
        <time>2019-02-09T08:43:42Z</time>
      </trkpt>
      <trkpt lat="42.815866" lon="0.488621">
        <ele>1277.0</ele>
        <time>2019-02-09T08:43:54Z</time>
      </trkpt>
      <trkpt lat="42.815917" lon="0.488724">
        <ele>1279.0</ele>
        <time>2019-02-09T08:44:07Z</time>
      </trkpt>
      <trkpt lat="42.815943" lon="0.488834">
        <ele>1282.4</ele>
        <time>2019-02-09T08:44:35Z</time>
      </trkpt>
      <trkpt lat="42.815931" lon="0.488899">
        <ele>1283.8</ele>
        <time>2019-02-09T08:45:15Z</time>
      </trkpt>
      <trkpt lat="42.815963" lon="0.489035">
        <ele>1284.9</ele>
        <time>2019-02-09T08:45:29Z</time>
      </trkpt>
      <trkpt lat="42.815998" lon="0.489167">
        <ele>1286.8</ele>
        <time>2019-02-09T08:45:42Z</time>
      </trkpt>
      <trkpt lat="42.816016" lon="0.489296">
        <ele>1288.6</ele>
        <time>2019-02-09T08:45:57Z</time>
      </trkpt>
      <trkpt lat="42.816061" lon="0.489397">
        <ele>1290.8</ele>
        <time>2019-02-09T08:46:33Z</time>
      </trkpt>
      <trkpt lat="42.816108" lon="0.489521">
        <ele>1292.2</ele>
        <time>2019-02-09T08:46:44Z</time>
      </trkpt>
      <trkpt lat="42.816149" lon="0.489648">
        <ele>1294.2</ele>
        <time>2019-02-09T08:46:57Z</time>
      </trkpt>
      <trkpt lat="42.816179" lon="0.489777">
        <ele>1296.8</ele>
        <time>2019-02-09T08:47:12Z</time>
      </trkpt>
      <trkpt lat="42.816203" lon="0.489900">
        <ele>1299.7</ele>
        <time>2019-02-09T08:47:29Z</time>
      </trkpt>
      <trkpt lat="42.816251" lon="0.490019">
        <ele>1302.5</ele>
        <time>2019-02-09T08:47:46Z</time>
      </trkpt>
      <trkpt lat="42.816295" lon="0.490134">
        <ele>1305.1</ele>
        <time>2019-02-09T08:48:03Z</time>
      </trkpt>
      <trkpt lat="42.816311" lon="0.490261">
        <ele>1308.6</ele>
        <time>2019-02-09T08:48:25Z</time>
      </trkpt>
      <trkpt lat="42.816356" lon="0.490350">
        <ele>1311.7</ele>
        <time>2019-02-09T08:48:46Z</time>
      </trkpt>
      <trkpt lat="42.816380" lon="0.490465">
        <ele>1314.5</ele>
        <time>2019-02-09T08:49:03Z</time>
      </trkpt>
      <trkpt lat="42.816427" lon="0.490576">
        <ele>1317.4</ele>
        <time>2019-02-09T08:49:21Z</time>
      </trkpt>
      <trkpt lat="42.816456" lon="0.490645">
        <ele>1321.6</ele>
        <time>2019-02-09T08:50:20Z</time>
      </trkpt>
      <trkpt lat="42.816475" lon="0.490646">
        <ele>1322.8</ele>
        <time>2019-02-09T08:52:39Z</time>
      </trkpt>
      <trkpt lat="42.816485" lon="0.490714">
        <ele>1323.7</ele>
        <time>2019-02-09T08:54:51Z</time>
      </trkpt>
      <trkpt lat="42.816516" lon="0.490841">
        <ele>1326.0</ele>
        <time>2019-02-09T08:55:08Z</time>
      </trkpt>
      <trkpt lat="42.816528" lon="0.490982">
        <ele>1329.3</ele>
        <time>2019-02-09T08:55:26Z</time>
      </trkpt>
      <trkpt lat="42.816530" lon="0.491114">
        <ele>1332.9</ele>
        <time>2019-02-09T08:55:48Z</time>
      </trkpt>
      <trkpt lat="42.816578" lon="0.491229">
        <ele>1336.5</ele>
        <time>2019-02-09T08:56:08Z</time>
      </trkpt>
      <trkpt lat="42.816632" lon="0.491337">
        <ele>1340.7</ele>
        <time>2019-02-09T08:56:34Z</time>
      </trkpt>
      <trkpt lat="42.816636" lon="0.491455">
        <ele>1344.4</ele>
        <time>2019-02-09T08:56:56Z</time>
      </trkpt>
      <trkpt lat="42.816660" lon="0.491569">
        <ele>1347.7</ele>
        <time>2019-02-09T08:57:21Z</time>
      </trkpt>
      <trkpt lat="42.816668" lon="0.491670">
        <ele>1350.9</ele>
        <time>2019-02-09T08:57:49Z</time>
      </trkpt>
      <trkpt lat="42.816647" lon="0.491809">
        <ele>1355.3</ele>
        <time>2019-02-09T08:58:24Z</time>
      </trkpt>
      <trkpt lat="42.816622" lon="0.491940">
        <ele>1358.7</ele>
        <time>2019-02-09T08:58:44Z</time>
      </trkpt>
      <trkpt lat="42.816638" lon="0.492073">
        <ele>1362.3</ele>
        <time>2019-02-09T08:59:06Z</time>
      </trkpt>
      <trkpt lat="42.816647" lon="0.492202">
        <ele>1366.3</ele>
        <time>2019-02-09T08:59:26Z</time>
      </trkpt>
      <trkpt lat="42.816657" lon="0.492320">
        <ele>1369.9</ele>
        <time>2019-02-09T08:59:46Z</time>
      </trkpt>
      <trkpt lat="42.816638" lon="0.492436">
        <ele>1374.1</ele>
        <time>2019-02-09T09:00:07Z</time>
      </trkpt>
      <trkpt lat="42.816629" lon="0.492577">
        <ele>1377.5</ele>
        <time>2019-02-09T09:00:27Z</time>
      </trkpt>
      <trkpt lat="42.816616" lon="0.492715">
        <ele>1381.5</ele>
        <time>2019-02-09T09:00:55Z</time>
      </trkpt>
      <trkpt lat="42.816598" lon="0.492822">
        <ele>1385.3</ele>
        <time>2019-02-09T09:01:22Z</time>
      </trkpt>
      <trkpt lat="42.816558" lon="0.492935">
        <ele>1387.5</ele>
        <time>2019-02-09T09:01:40Z</time>
      </trkpt>
      <trkpt lat="42.816543" lon="0.493008">
        <ele>1390.3</ele>
        <time>2019-02-09T09:02:04Z</time>
      </trkpt>
      <trkpt lat="42.816515" lon="0.493061">
        <ele>1393.1</ele>
        <time>2019-02-09T09:02:28Z</time>
      </trkpt>
      <trkpt lat="42.816501" lon="0.493065">
        <ele>1393.1</ele>
        <time>2019-02-09T09:03:31Z</time>
      </trkpt>
      <trkpt lat="42.816487" lon="0.493198">
        <ele>1394.2</ele>
        <time>2019-02-09T09:04:33Z</time>
      </trkpt>
      <trkpt lat="42.816447" lon="0.493322">
        <ele>1396.2</ele>
        <time>2019-02-09T09:04:54Z</time>
      </trkpt>
      <trkpt lat="42.816406" lon="0.493430">
        <ele>1398.2</ele>
        <time>2019-02-09T09:06:54Z</time>
      </trkpt>
      <trkpt lat="42.816406" lon="0.493561">
        <ele>1399.3</ele>
        <time>2019-02-09T09:07:11Z</time>
      </trkpt>
      <trkpt lat="42.816382" lon="0.493691">
        <ele>1402.1</ele>
        <time>2019-02-09T09:07:31Z</time>
      </trkpt>
      <trkpt lat="42.816326" lon="0.493835">
        <ele>1403.2</ele>
        <time>2019-02-09T09:07:47Z</time>
      </trkpt>
      <trkpt lat="42.816266" lon="0.493964">
        <ele>1405.2</ele>
        <time>2019-02-09T09:08:01Z</time>
      </trkpt>
      <trkpt lat="42.816222" lon="0.494076">
        <ele>1406.9</ele>
        <time>2019-02-09T09:08:17Z</time>
      </trkpt>
      <trkpt lat="42.816181" lon="0.494205">
        <ele>1408.3</ele>
        <time>2019-02-09T09:08:34Z</time>
      </trkpt>
      <trkpt lat="42.816168" lon="0.494316">
        <ele>1409.9</ele>
        <time>2019-02-09T09:08:46Z</time>
      </trkpt>
      <trkpt lat="42.816150" lon="0.494446">
        <ele>1412.8</ele>
        <time>2019-02-09T09:09:05Z</time>
      </trkpt>
      <trkpt lat="42.816113" lon="0.494577">
        <ele>1414.7</ele>
        <time>2019-02-09T09:09:19Z</time>
      </trkpt>
      <trkpt lat="42.816100" lon="0.494688">
        <ele>1416.7</ele>
        <time>2019-02-09T09:09:34Z</time>
      </trkpt>
      <trkpt lat="42.816097" lon="0.494814">
        <ele>1419.2</ele>
        <time>2019-02-09T09:09:50Z</time>
      </trkpt>
      <trkpt lat="42.816089" lon="0.494945">
        <ele>1422.1</ele>
        <time>2019-02-09T09:10:07Z</time>
      </trkpt>
      <trkpt lat="42.816085" lon="0.495070">
        <ele>1424.3</ele>
        <time>2019-02-09T09:10:20Z</time>
      </trkpt>
      <trkpt lat="42.816080" lon="0.495208">
        <ele>1426.7</ele>
        <time>2019-02-09T09:10:34Z</time>
      </trkpt>
      <trkpt lat="42.816124" lon="0.495327">
        <ele>1429.4</ele>
        <time>2019-02-09T09:10:51Z</time>
      </trkpt>
      <trkpt lat="42.816125" lon="0.495350">
        <ele>1432.9</ele>
        <time>2019-02-09T09:13:01Z</time>
      </trkpt>
      <trkpt lat="42.816174" lon="0.495368">
        <ele>1434.4</ele>
        <time>2019-02-09T09:16:03Z</time>
      </trkpt>
      <trkpt lat="42.816252" lon="0.495415">
        <ele>1439.1</ele>
        <time>2019-02-09T09:16:27Z</time>
      </trkpt>
      <trkpt lat="42.816334" lon="0.495362">
        <ele>1443.9</ele>
        <time>2019-02-09T09:16:53Z</time>
      </trkpt>
      <trkpt lat="42.816413" lon="0.495282">
        <ele>1448.2</ele>
        <time>2019-02-09T09:17:18Z</time>
      </trkpt>
      <trkpt lat="42.816491" lon="0.495213">
        <ele>1450.8</ele>
        <time>2019-02-09T09:17:35Z</time>
      </trkpt>
      <trkpt lat="42.816573" lon="0.495169">
        <ele>1453.5</ele>
        <time>2019-02-09T09:17:53Z</time>
      </trkpt>
      <trkpt lat="42.816658" lon="0.495109">
        <ele>1456.0</ele>
        <time>2019-02-09T09:18:10Z</time>
      </trkpt>
      <trkpt lat="42.816752" lon="0.495076">
        <ele>1458.6</ele>
        <time>2019-02-09T09:18:30Z</time>
      </trkpt>
      <trkpt lat="42.816839" lon="0.495050">
        <ele>1461.1</ele>
        <time>2019-02-09T09:19:03Z</time>
      </trkpt>
      <trkpt lat="42.816933" lon="0.495026">
        <ele>1462.4</ele>
        <time>2019-02-09T09:19:18Z</time>
      </trkpt>
      <trkpt lat="42.817031" lon="0.494989">
        <ele>1465.0</ele>
        <time>2019-02-09T09:19:37Z</time>
      </trkpt>
      <trkpt lat="42.817118" lon="0.494944">
        <ele>1468.5</ele>
        <time>2019-02-09T09:19:58Z</time>
      </trkpt>
      <trkpt lat="42.817206" lon="0.494900">
        <ele>1470.2</ele>
        <time>2019-02-09T09:20:12Z</time>
      </trkpt>
      <trkpt lat="42.817293" lon="0.494863">
        <ele>1471.7</ele>
        <time>2019-02-09T09:20:27Z</time>
      </trkpt>
      <trkpt lat="42.817385" lon="0.494827">
        <ele>1473.8</ele>
        <time>2019-02-09T09:20:47Z</time>
      </trkpt>
      <trkpt lat="42.817483" lon="0.494796">
        <ele>1475.8</ele>
        <time>2019-02-09T09:21:04Z</time>
      </trkpt>
      <trkpt lat="42.817569" lon="0.494780">
        <ele>1478.2</ele>
        <time>2019-02-09T09:21:20Z</time>
      </trkpt>
      <trkpt lat="42.817653" lon="0.494777">
        <ele>1480.5</ele>
        <time>2019-02-09T09:21:56Z</time>
      </trkpt>
      <trkpt lat="42.817756" lon="0.494773">
        <ele>1484.5</ele>
        <time>2019-02-09T09:22:20Z</time>
      </trkpt>
      <trkpt lat="42.817851" lon="0.494745">
        <ele>1489.9</ele>
        <time>2019-02-09T09:22:51Z</time>
      </trkpt>
      <trkpt lat="42.817944" lon="0.494737">
        <ele>1493.4</ele>
        <time>2019-02-09T09:23:15Z</time>
      </trkpt>
      <trkpt lat="42.818025" lon="0.494694">
        <ele>1497.6</ele>
        <time>2019-02-09T09:23:32Z</time>
      </trkpt>
      <trkpt lat="42.818116" lon="0.494657">
        <ele>1503.1</ele>
        <time>2019-02-09T09:24:03Z</time>
      </trkpt>
      <trkpt lat="42.818203" lon="0.494636">
        <ele>1507.2</ele>
        <time>2019-02-09T09:24:30Z</time>
      </trkpt>
      <trkpt lat="42.818289" lon="0.494622">
        <ele>1510.7</ele>
        <time>2019-02-09T09:24:53Z</time>
      </trkpt>
      <trkpt lat="42.818381" lon="0.494626">
        <ele>1515.2</ele>
        <time>2019-02-09T09:25:12Z</time>
      </trkpt>
      <trkpt lat="42.818470" lon="0.494620">
        <ele>1519.0</ele>
        <time>2019-02-09T09:25:35Z</time>
      </trkpt>
      <trkpt lat="42.818568" lon="0.494610">
        <ele>1523.2</ele>
        <time>2019-02-09T09:25:58Z</time>
      </trkpt>
      <trkpt lat="42.818656" lon="0.494596">
        <ele>1528.7</ele>
        <time>2019-02-09T09:26:29Z</time>
      </trkpt>
      <trkpt lat="42.818750" lon="0.494589">
        <ele>1532.5</ele>
        <time>2019-02-09T09:26:50Z</time>
      </trkpt>
      <trkpt lat="42.818842" lon="0.494599">
        <ele>1538.6</ele>
        <time>2019-02-09T09:27:17Z</time>
      </trkpt>
      <trkpt lat="42.818935" lon="0.494613">
        <ele>1544.1</ele>
        <time>2019-02-09T09:27:45Z</time>
      </trkpt>
      <trkpt lat="42.819029" lon="0.494602">
        <ele>1548.8</ele>
        <time>2019-02-09T09:28:19Z</time>
      </trkpt>
      <trkpt lat="42.819134" lon="0.494596">
        <ele>1555.3</ele>
        <time>2019-02-09T09:28:59Z</time>
      </trkpt>
      <trkpt lat="42.819226" lon="0.494578">
        <ele>1559.8</ele>
        <time>2019-02-09T09:29:24Z</time>
      </trkpt>
      <trkpt lat="42.819292" lon="0.494599">
        <ele>1563.4</ele>
        <time>2019-02-09T09:29:45Z</time>
      </trkpt>
      <trkpt lat="42.819377" lon="0.494590">
        <ele>1567.7</ele>
        <time>2019-02-09T09:30:13Z</time>
      </trkpt>
      <trkpt lat="42.819456" lon="0.494582">
        <ele>1572.3</ele>
        <time>2019-02-09T09:30:47Z</time>
      </trkpt>
      <trkpt lat="42.819536" lon="0.494526">
        <ele>1576.4</ele>
        <time>2019-02-09T09:31:11Z</time>
      </trkpt>
      <trkpt lat="42.819616" lon="0.494449">
        <ele>1581.2</ele>
        <time>2019-02-09T09:31:41Z</time>
      </trkpt>
      <trkpt lat="42.819712" lon="0.494402">
        <ele>1584.0</ele>
        <time>2019-02-09T09:31:58Z</time>
      </trkpt>
      <trkpt lat="42.819821" lon="0.494369">
        <ele>1586.3</ele>
        <time>2019-02-09T09:32:13Z</time>
      </trkpt>
      <trkpt lat="42.819864" lon="0.494412">
        <ele>1589.6</ele>
        <time>2019-02-09T09:34:34Z</time>
      </trkpt>
      <trkpt lat="42.819909" lon="0.494449">
        <ele>1589.8</ele>
        <time>2019-02-09T09:37:02Z</time>
      </trkpt>
      <trkpt lat="42.819996" lon="0.494457">
        <ele>1590.8</ele>
        <time>2019-02-09T09:37:19Z</time>
      </trkpt>
      <trkpt lat="42.820085" lon="0.494452">
        <ele>1592.1</ele>
        <time>2019-02-09T09:37:33Z</time>
      </trkpt>
      <trkpt lat="42.820185" lon="0.494437">
        <ele>1593.4</ele>
        <time>2019-02-09T09:37:47Z</time>
      </trkpt>
      <trkpt lat="42.820285" lon="0.494434">
        <ele>1595.1</ele>
        <time>2019-02-09T09:38:04Z</time>
      </trkpt>
      <trkpt lat="42.820391" lon="0.494421">
        <ele>1596.7</ele>
        <time>2019-02-09T09:38:21Z</time>
      </trkpt>
      <trkpt lat="42.820492" lon="0.494391">
        <ele>1598.6</ele>
        <time>2019-02-09T09:38:38Z</time>
      </trkpt>
      <trkpt lat="42.820590" lon="0.494373">
        <ele>1600.5</ele>
        <time>2019-02-09T09:38:54Z</time>
      </trkpt>
      <trkpt lat="42.820684" lon="0.494349">
        <ele>1602.1</ele>
        <time>2019-02-09T09:39:06Z</time>
      </trkpt>
      <trkpt lat="42.820793" lon="0.494379">
        <ele>1603.2</ele>
        <time>2019-02-09T09:39:21Z</time>
      </trkpt>
      <trkpt lat="42.820887" lon="0.494381">
        <ele>1604.7</ele>
        <time>2019-02-09T09:39:36Z</time>
      </trkpt>
      <trkpt lat="42.820963" lon="0.494360">
        <ele>1604.9</ele>
        <time>2019-02-09T09:39:53Z</time>
      </trkpt>
      <trkpt lat="42.821059" lon="0.494392">
        <ele>1604.3</ele>
        <time>2019-02-09T09:40:04Z</time>
      </trkpt>
      <trkpt lat="42.821159" lon="0.494391">
        <ele>1602.8</ele>
        <time>2019-02-09T09:40:14Z</time>
      </trkpt>
      <trkpt lat="42.821252" lon="0.494427">
        <ele>1601.9</ele>
        <time>2019-02-09T09:40:24Z</time>
      </trkpt>
      <trkpt lat="42.821350" lon="0.494469">
        <ele>1601.0</ele>
        <time>2019-02-09T09:40:35Z</time>
      </trkpt>
      <trkpt lat="42.821439" lon="0.494519">
        <ele>1600.4</ele>
        <time>2019-02-09T09:40:44Z</time>
      </trkpt>
      <trkpt lat="42.821529" lon="0.494573">
        <ele>1600.2</ele>
        <time>2019-02-09T09:40:54Z</time>
      </trkpt>
      <trkpt lat="42.821617" lon="0.494626">
        <ele>1600.7</ele>
        <time>2019-02-09T09:41:05Z</time>
      </trkpt>
      <trkpt lat="42.821706" lon="0.494656">
        <ele>1601.7</ele>
        <time>2019-02-09T09:41:16Z</time>
      </trkpt>
      <trkpt lat="42.821800" lon="0.494694">
        <ele>1603.4</ele>
        <time>2019-02-09T09:41:33Z</time>
      </trkpt>
      <trkpt lat="42.821887" lon="0.494742">
        <ele>1604.6</ele>
        <time>2019-02-09T09:41:46Z</time>
      </trkpt>
      <trkpt lat="42.821990" lon="0.494794">
        <ele>1605.7</ele>
        <time>2019-02-09T09:41:59Z</time>
      </trkpt>
      <trkpt lat="42.822067" lon="0.494870">
        <ele>1606.8</ele>
        <time>2019-02-09T09:42:11Z</time>
      </trkpt>
      <trkpt lat="42.822127" lon="0.494950">
        <ele>1607.2</ele>
        <time>2019-02-09T09:42:27Z</time>
      </trkpt>
      <trkpt lat="42.822200" lon="0.495043">
        <ele>1607.7</ele>
        <time>2019-02-09T09:42:38Z</time>
      </trkpt>
      <trkpt lat="42.822274" lon="0.495134">
        <ele>1607.9</ele>
        <time>2019-02-09T09:42:50Z</time>
      </trkpt>
      <trkpt lat="42.822353" lon="0.495208">
        <ele>1608.4</ele>
        <time>2019-02-09T09:43:01Z</time>
      </trkpt>
      <trkpt lat="42.822424" lon="0.495303">
        <ele>1608.5</ele>
        <time>2019-02-09T09:43:13Z</time>
      </trkpt>
      <trkpt lat="42.822509" lon="0.495367">
        <ele>1608.7</ele>
        <time>2019-02-09T09:43:26Z</time>
      </trkpt>
      <trkpt lat="42.822613" lon="0.495378">
        <ele>1609.6</ele>
        <time>2019-02-09T09:43:40Z</time>
      </trkpt>
      <trkpt lat="42.822705" lon="0.495397">
        <ele>1611.9</ele>
        <time>2019-02-09T09:44:01Z</time>
      </trkpt>
      <trkpt lat="42.822804" lon="0.495412">
        <ele>1613.3</ele>
        <time>2019-02-09T09:44:16Z</time>
      </trkpt>
      <trkpt lat="42.822895" lon="0.495422">
        <ele>1615.7</ele>
        <time>2019-02-09T09:44:35Z</time>
      </trkpt>
      <trkpt lat="42.822988" lon="0.495426">
        <ele>1617.7</ele>
        <time>2019-02-09T09:44:52Z</time>
      </trkpt>
      <trkpt lat="42.823086" lon="0.495402">
        <ele>1620.6</ele>
        <time>2019-02-09T09:45:10Z</time>
      </trkpt>
      <trkpt lat="42.823174" lon="0.495370">
        <ele>1623.5</ele>
        <time>2019-02-09T09:45:26Z</time>
      </trkpt>
      <trkpt lat="42.823258" lon="0.495363">
        <ele>1626.5</ele>
        <time>2019-02-09T09:45:45Z</time>
      </trkpt>
      <trkpt lat="42.823360" lon="0.495336">
        <ele>1628.9</ele>
        <time>2019-02-09T09:46:01Z</time>
      </trkpt>
      <trkpt lat="42.823452" lon="0.495338">
        <ele>1631.0</ele>
        <time>2019-02-09T09:46:16Z</time>
      </trkpt>
      <trkpt lat="42.823528" lon="0.495403">
        <ele>1634.4</ele>
        <time>2019-02-09T09:46:35Z</time>
      </trkpt>
      <trkpt lat="42.823601" lon="0.495479">
        <ele>1638.3</ele>
        <time>2019-02-09T09:46:58Z</time>
      </trkpt>
      <trkpt lat="42.823644" lon="0.495567">
        <ele>1641.5</ele>
        <time>2019-02-09T09:47:18Z</time>
      </trkpt>
      <trkpt lat="42.823727" lon="0.495578">
        <ele>1644.7</ele>
        <time>2019-02-09T09:47:39Z</time>
      </trkpt>
      <trkpt lat="42.823814" lon="0.495584">
        <ele>1648.1</ele>
        <time>2019-02-09T09:48:01Z</time>
      </trkpt>
      <trkpt lat="42.823875" lon="0.495669">
        <ele>1651.8</ele>
        <time>2019-02-09T09:48:24Z</time>
      </trkpt>
      <trkpt lat="42.823949" lon="0.495756">
        <ele>1655.3</ele>
        <time>2019-02-09T09:48:48Z</time>
      </trkpt>
      <trkpt lat="42.824047" lon="0.495739">
        <ele>1659.2</ele>
        <time>2019-02-09T09:49:16Z</time>
      </trkpt>
      <trkpt lat="42.824126" lon="0.495786">
        <ele>1662.3</ele>
        <time>2019-02-09T09:50:02Z</time>
      </trkpt>
      <trkpt lat="42.824222" lon="0.495796">
        <ele>1664.9</ele>
        <time>2019-02-09T09:50:21Z</time>
      </trkpt>
      <trkpt lat="42.824322" lon="0.495835">
        <ele>1667.8</ele>
        <time>2019-02-09T09:50:41Z</time>
      </trkpt>
      <trkpt lat="42.824400" lon="0.495866">
        <ele>1671.7</ele>
        <time>2019-02-09T09:51:06Z</time>
      </trkpt>
      <trkpt lat="42.824489" lon="0.495873">
        <ele>1675.8</ele>
        <time>2019-02-09T09:51:34Z</time>
      </trkpt>
      <trkpt lat="42.824577" lon="0.495898">
        <ele>1678.9</ele>
        <time>2019-02-09T09:51:59Z</time>
      </trkpt>
      <trkpt lat="42.824664" lon="0.495945">
        <ele>1683.0</ele>
        <time>2019-02-09T09:52:28Z</time>
      </trkpt>
      <trkpt lat="42.824763" lon="0.495979">
        <ele>1686.5</ele>
        <time>2019-02-09T09:52:53Z</time>
      </trkpt>
      <trkpt lat="42.824847" lon="0.495996">
        <ele>1691.6</ele>
        <time>2019-02-09T09:53:27Z</time>
      </trkpt>
      <trkpt lat="42.824949" lon="0.496020">
        <ele>1694.5</ele>
        <time>2019-02-09T09:53:47Z</time>
      </trkpt>
      <trkpt lat="42.825041" lon="0.496049">
        <ele>1696.9</ele>
        <time>2019-02-09T09:54:06Z</time>
      </trkpt>
      <trkpt lat="42.825117" lon="0.496084">
        <ele>1701.4</ele>
        <time>2019-02-09T09:54:33Z</time>
      </trkpt>
      <trkpt lat="42.825185" lon="0.496116">
        <ele>1704.7</ele>
        <time>2019-02-09T09:54:57Z</time>
      </trkpt>
      <trkpt lat="42.825263" lon="0.496146">
        <ele>1709.1</ele>
        <time>2019-02-09T09:55:27Z</time>
      </trkpt>
      <trkpt lat="42.825339" lon="0.496189">
        <ele>1712.7</ele>
        <time>2019-02-09T09:55:52Z</time>
      </trkpt>
      <trkpt lat="42.825411" lon="0.496233">
        <ele>1716.4</ele>
        <time>2019-02-09T09:56:15Z</time>
      </trkpt>
      <trkpt lat="42.825479" lon="0.496306">
        <ele>1721.1</ele>
        <time>2019-02-09T09:56:44Z</time>
      </trkpt>
      <trkpt lat="42.825538" lon="0.496410">
        <ele>1725.8</ele>
        <time>2019-02-09T09:57:13Z</time>
      </trkpt>
      <trkpt lat="42.825592" lon="0.496503">
        <ele>1729.4</ele>
        <time>2019-02-09T09:57:36Z</time>
      </trkpt>
      <trkpt lat="42.825662" lon="0.496586">
        <ele>1734.4</ele>
        <time>2019-02-09T09:58:09Z</time>
      </trkpt>
      <trkpt lat="42.825732" lon="0.496680">
        <ele>1738.9</ele>
        <time>2019-02-09T09:58:34Z</time>
      </trkpt>
      <trkpt lat="42.825796" lon="0.496768">
        <ele>1743.2</ele>
        <time>2019-02-09T09:59:03Z</time>
      </trkpt>
      <trkpt lat="42.825872" lon="0.496813">
        <ele>1746.9</ele>
        <time>2019-02-09T09:59:25Z</time>
      </trkpt>
      <trkpt lat="42.825903" lon="0.496917">
        <ele>1751.4</ele>
        <time>2019-02-09T09:59:52Z</time>
      </trkpt>
      <trkpt lat="42.825893" lon="0.496953">
        <ele>1752.8</ele>
        <time>2019-02-09T10:01:35Z</time>
      </trkpt>
      <trkpt lat="42.825974" lon="0.497037">
        <ele>1755.6</ele>
        <time>2019-02-09T10:02:14Z</time>
      </trkpt>
      <trkpt lat="42.826068" lon="0.497100">
        <ele>1759.2</ele>
        <time>2019-02-09T10:02:34Z</time>
      </trkpt>
      <trkpt lat="42.826150" lon="0.497167">
        <ele>1762.8</ele>
        <time>2019-02-09T10:02:54Z</time>
      </trkpt>
      <trkpt lat="42.826228" lon="0.497213">
        <ele>1765.1</ele>
        <time>2019-02-09T10:03:09Z</time>
      </trkpt>
      <trkpt lat="42.826324" lon="0.497273">
        <ele>1769.2</ele>
        <time>2019-02-09T10:03:34Z</time>
      </trkpt>
      <trkpt lat="42.826420" lon="0.497317">
        <ele>1772.3</ele>
        <time>2019-02-09T10:03:53Z</time>
      </trkpt>
      <trkpt lat="42.826507" lon="0.497362">
        <ele>1775.3</ele>
        <time>2019-02-09T10:04:10Z</time>
      </trkpt>
      <trkpt lat="42.826604" lon="0.497408">
        <ele>1778.4</ele>
        <time>2019-02-09T10:04:32Z</time>
      </trkpt>
      <trkpt lat="42.826702" lon="0.497436">
        <ele>1781.3</ele>
        <time>2019-02-09T10:04:51Z</time>
      </trkpt>
      <trkpt lat="42.826798" lon="0.497463">
        <ele>1783.2</ele>
        <time>2019-02-09T10:05:06Z</time>
      </trkpt>
      <trkpt lat="42.826883" lon="0.497503">
        <ele>1785.4</ele>
        <time>2019-02-09T10:05:22Z</time>
      </trkpt>
      <trkpt lat="42.826968" lon="0.497541">
        <ele>1788.1</ele>
        <time>2019-02-09T10:05:41Z</time>
      </trkpt>
      <trkpt lat="42.827065" lon="0.497566">
        <ele>1790.9</ele>
        <time>2019-02-09T10:05:59Z</time>
      </trkpt>
      <trkpt lat="42.827154" lon="0.497593">
        <ele>1793.3</ele>
        <time>2019-02-09T10:06:16Z</time>
      </trkpt>
      <trkpt lat="42.827247" lon="0.497612">
        <ele>1796.1</ele>
        <time>2019-02-09T10:06:34Z</time>
      </trkpt>
      <trkpt lat="42.827336" lon="0.497610">
        <ele>1799.6</ele>
        <time>2019-02-09T10:07:56Z</time>
      </trkpt>
      <trkpt lat="42.827427" lon="0.497631">
        <ele>1801.0</ele>
        <time>2019-02-09T10:08:09Z</time>
      </trkpt>
      <trkpt lat="42.827515" lon="0.497667">
        <ele>1803.8</ele>
        <time>2019-02-09T10:08:28Z</time>
      </trkpt>
      <trkpt lat="42.827615" lon="0.497686">
        <ele>1806.2</ele>
        <time>2019-02-09T10:08:44Z</time>
      </trkpt>
      <trkpt lat="42.827720" lon="0.497702">
        <ele>1808.5</ele>
        <time>2019-02-09T10:09:01Z</time>
      </trkpt>
      <trkpt lat="42.827809" lon="0.497739">
        <ele>1811.2</ele>
        <time>2019-02-09T10:09:22Z</time>
      </trkpt>
      <trkpt lat="42.827911" lon="0.497753">
        <ele>1813.4</ele>
        <time>2019-02-09T10:09:41Z</time>
      </trkpt>
      <trkpt lat="42.828008" lon="0.497767">
        <ele>1815.8</ele>
        <time>2019-02-09T10:09:59Z</time>
      </trkpt>
      <trkpt lat="42.828104" lon="0.497770">
        <ele>1817.9</ele>
        <time>2019-02-09T10:10:17Z</time>
      </trkpt>
      <trkpt lat="42.828199" lon="0.497766">
        <ele>1820.4</ele>
        <time>2019-02-09T10:10:33Z</time>
      </trkpt>
      <trkpt lat="42.828298" lon="0.497780">
        <ele>1822.3</ele>
        <time>2019-02-09T10:10:50Z</time>
      </trkpt>
      <trkpt lat="42.828396" lon="0.497785">
        <ele>1824.6</ele>
        <time>2019-02-09T10:11:07Z</time>
      </trkpt>
      <trkpt lat="42.828487" lon="0.497791">
        <ele>1826.9</ele>
        <time>2019-02-09T10:11:24Z</time>
      </trkpt>
      <trkpt lat="42.828592" lon="0.497787">
        <ele>1829.6</ele>
        <time>2019-02-09T10:11:43Z</time>
      </trkpt>
      <trkpt lat="42.828691" lon="0.497795">
        <ele>1831.8</ele>
        <time>2019-02-09T10:12:01Z</time>
      </trkpt>
      <trkpt lat="42.828790" lon="0.497800">
        <ele>1834.3</ele>
        <time>2019-02-09T10:12:19Z</time>
      </trkpt>
      <trkpt lat="42.828882" lon="0.497809">
        <ele>1836.7</ele>
        <time>2019-02-09T10:12:35Z</time>
      </trkpt>
      <trkpt lat="42.828976" lon="0.497831">
        <ele>1839.0</ele>
        <time>2019-02-09T10:12:52Z</time>
      </trkpt>
      <trkpt lat="42.829060" lon="0.497866">
        <ele>1840.9</ele>
        <time>2019-02-09T10:13:09Z</time>
      </trkpt>
      <trkpt lat="42.829157" lon="0.497902">
        <ele>1842.9</ele>
        <time>2019-02-09T10:13:36Z</time>
      </trkpt>
      <trkpt lat="42.829249" lon="0.497935">
        <ele>1845.6</ele>
        <time>2019-02-09T10:13:52Z</time>
      </trkpt>
      <trkpt lat="42.829335" lon="0.497953">
        <ele>1847.3</ele>
        <time>2019-02-09T10:14:08Z</time>
      </trkpt>
      <trkpt lat="42.829421" lon="0.497981">
        <ele>1849.4</ele>
        <time>2019-02-09T10:14:23Z</time>
      </trkpt>
      <trkpt lat="42.829515" lon="0.498018">
        <ele>1851.3</ele>
        <time>2019-02-09T10:14:38Z</time>
      </trkpt>
      <trkpt lat="42.829569" lon="0.498066">
        <ele>1853.1</ele>
        <time>2019-02-09T10:23:57Z</time>
      </trkpt>
      <trkpt lat="42.829650" lon="0.498091">
        <ele>1854.0</ele>
        <time>2019-02-09T10:25:12Z</time>
      </trkpt>
      <trkpt lat="42.829748" lon="0.498138">
        <ele>1855.2</ele>
        <time>2019-02-09T10:25:28Z</time>
      </trkpt>
      <trkpt lat="42.829847" lon="0.498176">
        <ele>1856.3</ele>
        <time>2019-02-09T10:25:41Z</time>
      </trkpt>
      <trkpt lat="42.829943" lon="0.498198">
        <ele>1857.6</ele>
        <time>2019-02-09T10:25:53Z</time>
      </trkpt>
      <trkpt lat="42.830035" lon="0.498238">
        <ele>1858.7</ele>
        <time>2019-02-09T10:26:06Z</time>
      </trkpt>
      <trkpt lat="42.830126" lon="0.498288">
        <ele>1860.0</ele>
        <time>2019-02-09T10:26:19Z</time>
      </trkpt>
      <trkpt lat="42.830217" lon="0.498335">
        <ele>1861.2</ele>
        <time>2019-02-09T10:26:31Z</time>
      </trkpt>
      <trkpt lat="42.830308" lon="0.498364">
        <ele>1862.3</ele>
        <time>2019-02-09T10:26:43Z</time>
      </trkpt>
      <trkpt lat="42.830402" lon="0.498390">
        <ele>1863.6</ele>
        <time>2019-02-09T10:26:55Z</time>
      </trkpt>
      <trkpt lat="42.830493" lon="0.498422">
        <ele>1864.8</ele>
        <time>2019-02-09T10:27:06Z</time>
      </trkpt>
      <trkpt lat="42.830584" lon="0.498440">
        <ele>1865.9</ele>
        <time>2019-02-09T10:27:18Z</time>
      </trkpt>
      <trkpt lat="42.830670" lon="0.498480">
        <ele>1867.1</ele>
        <time>2019-02-09T10:27:30Z</time>
      </trkpt>
      <trkpt lat="42.830758" lon="0.498526">
        <ele>1868.0</ele>
        <time>2019-02-09T10:27:42Z</time>
      </trkpt>
      <trkpt lat="42.830850" lon="0.498551">
        <ele>1869.2</ele>
        <time>2019-02-09T10:27:53Z</time>
      </trkpt>
      <trkpt lat="42.830945" lon="0.498573">
        <ele>1870.3</ele>
        <time>2019-02-09T10:28:05Z</time>
      </trkpt>
      <trkpt lat="42.831039" lon="0.498603">
        <ele>1871.3</ele>
        <time>2019-02-09T10:28:17Z</time>
      </trkpt>
      <trkpt lat="42.831135" lon="0.498638">
        <ele>1873.0</ele>
        <time>2019-02-09T10:28:31Z</time>
      </trkpt>
      <trkpt lat="42.831233" lon="0.498667">
        <ele>1874.4</ele>
        <time>2019-02-09T10:28:44Z</time>
      </trkpt>
      <trkpt lat="42.831325" lon="0.498704">
        <ele>1876.0</ele>
        <time>2019-02-09T10:28:56Z</time>
      </trkpt>
      <trkpt lat="42.831415" lon="0.498737">
        <ele>1877.5</ele>
        <time>2019-02-09T10:29:08Z</time>
      </trkpt>
      <trkpt lat="42.831501" lon="0.498755">
        <ele>1879.4</ele>
        <time>2019-02-09T10:29:19Z</time>
      </trkpt>
      <trkpt lat="42.831559" lon="0.498700">
        <ele>1881.0</ele>
        <time>2019-02-09T10:29:31Z</time>
      </trkpt>
      <trkpt lat="42.831643" lon="0.498655">
        <ele>1882.7</ele>
        <time>2019-02-09T10:29:43Z</time>
      </trkpt>
      <trkpt lat="42.831741" lon="0.498658">
        <ele>1883.7</ele>
        <time>2019-02-09T10:29:53Z</time>
      </trkpt>
      <trkpt lat="42.831832" lon="0.498647">
        <ele>1885.3</ele>
        <time>2019-02-09T10:30:04Z</time>
      </trkpt>
      <trkpt lat="42.831912" lon="0.498644">
        <ele>1886.6</ele>
        <time>2019-02-09T10:30:19Z</time>
      </trkpt>
      <trkpt lat="42.831999" lon="0.498632">
        <ele>1887.0</ele>
        <time>2019-02-09T10:32:04Z</time>
      </trkpt>
      <trkpt lat="42.832091" lon="0.498596">
        <ele>1886.2</ele>
        <time>2019-02-09T10:32:17Z</time>
      </trkpt>
      <trkpt lat="42.832181" lon="0.498577">
        <ele>1884.8</ele>
        <time>2019-02-09T10:32:28Z</time>
      </trkpt>
      <trkpt lat="42.832270" lon="0.498590">
        <ele>1884.4</ele>
        <time>2019-02-09T10:32:41Z</time>
      </trkpt>
      <trkpt lat="42.832367" lon="0.498616">
        <ele>1884.8</ele>
        <time>2019-02-09T10:32:53Z</time>
      </trkpt>
      <trkpt lat="42.832470" lon="0.498645">
        <ele>1884.6</ele>
        <time>2019-02-09T10:33:05Z</time>
      </trkpt>
      <trkpt lat="42.832552" lon="0.498700">
        <ele>1884.2</ele>
        <time>2019-02-09T10:33:15Z</time>
      </trkpt>
      <trkpt lat="42.832643" lon="0.498705">
        <ele>1883.2</ele>
        <time>2019-02-09T10:33:25Z</time>
      </trkpt>
      <trkpt lat="42.832701" lon="0.498621">
        <ele>1881.0</ele>
        <time>2019-02-09T10:33:37Z</time>
      </trkpt>
      <trkpt lat="42.832768" lon="0.498528">
        <ele>1880.6</ele>
        <time>2019-02-09T10:33:49Z</time>
      </trkpt>
      <trkpt lat="42.832854" lon="0.498483">
        <ele>1879.9</ele>
        <time>2019-02-09T10:33:59Z</time>
      </trkpt>
      <trkpt lat="42.832955" lon="0.498464">
        <ele>1879.1</ele>
        <time>2019-02-09T10:34:09Z</time>
      </trkpt>
      <trkpt lat="42.833041" lon="0.498426">
        <ele>1878.0</ele>
        <time>2019-02-09T10:34:19Z</time>
      </trkpt>
      <trkpt lat="42.833133" lon="0.498386">
        <ele>1877.3</ele>
        <time>2019-02-09T10:34:30Z</time>
      </trkpt>
      <trkpt lat="42.833225" lon="0.498372">
        <ele>1876.8</ele>
        <time>2019-02-09T10:34:40Z</time>
      </trkpt>
      <trkpt lat="42.833323" lon="0.498356">
        <ele>1876.5</ele>
        <time>2019-02-09T10:34:51Z</time>
      </trkpt>
      <trkpt lat="42.833411" lon="0.498333">
        <ele>1876.4</ele>
        <time>2019-02-09T10:35:00Z</time>
      </trkpt>
      <trkpt lat="42.833504" lon="0.498304">
        <ele>1876.0</ele>
        <time>2019-02-09T10:35:10Z</time>
      </trkpt>
      <trkpt lat="42.833593" lon="0.498286">
        <ele>1876.0</ele>
        <time>2019-02-09T10:35:19Z</time>
      </trkpt>
      <trkpt lat="42.833683" lon="0.498256">
        <ele>1875.7</ele>
        <time>2019-02-09T10:35:29Z</time>
      </trkpt>
      <trkpt lat="42.833763" lon="0.498206">
        <ele>1875.4</ele>
        <time>2019-02-09T10:35:41Z</time>
      </trkpt>
      <trkpt lat="42.833826" lon="0.498111">
        <ele>1874.5</ele>
        <time>2019-02-09T10:35:53Z</time>
      </trkpt>
      <trkpt lat="42.833887" lon="0.498016">
        <ele>1874.2</ele>
        <time>2019-02-09T10:36:04Z</time>
      </trkpt>
      <trkpt lat="42.833943" lon="0.497902">
        <ele>1874.3</ele>
        <time>2019-02-09T10:36:15Z</time>
      </trkpt>
      <trkpt lat="42.834022" lon="0.497804">
        <ele>1875.1</ele>
        <time>2019-02-09T10:36:27Z</time>
      </trkpt>
      <trkpt lat="42.834108" lon="0.497742">
        <ele>1876.4</ele>
        <time>2019-02-09T10:36:39Z</time>
      </trkpt>
      <trkpt lat="42.834195" lon="0.497685">
        <ele>1878.2</ele>
        <time>2019-02-09T10:36:51Z</time>
      </trkpt>
      <trkpt lat="42.834297" lon="0.497649">
        <ele>1879.9</ele>
        <time>2019-02-09T10:37:04Z</time>
      </trkpt>
      <trkpt lat="42.834405" lon="0.497616">
        <ele>1881.1</ele>
        <time>2019-02-09T10:37:17Z</time>
      </trkpt>
      <trkpt lat="42.834505" lon="0.497602">
        <ele>1882.2</ele>
        <time>2019-02-09T10:37:29Z</time>
      </trkpt>
      <trkpt lat="42.834594" lon="0.497574">
        <ele>1883.0</ele>
        <time>2019-02-09T10:37:40Z</time>
      </trkpt>
      <trkpt lat="42.834686" lon="0.497535">
        <ele>1883.3</ele>
        <time>2019-02-09T10:37:51Z</time>
      </trkpt>
      <trkpt lat="42.834783" lon="0.497499">
        <ele>1883.5</ele>
        <time>2019-02-09T10:38:02Z</time>
      </trkpt>
      <trkpt lat="42.834878" lon="0.497483">
        <ele>1883.7</ele>
        <time>2019-02-09T10:38:12Z</time>
      </trkpt>
      <trkpt lat="42.834977" lon="0.497461">
        <ele>1884.4</ele>
        <time>2019-02-09T10:38:24Z</time>
      </trkpt>
      <trkpt lat="42.835085" lon="0.497461">
        <ele>1885.1</ele>
        <time>2019-02-09T10:38:37Z</time>
      </trkpt>
      <trkpt lat="42.835183" lon="0.497473">
        <ele>1886.7</ele>
        <time>2019-02-09T10:38:51Z</time>
      </trkpt>
      <trkpt lat="42.835295" lon="0.497469">
        <ele>1888.2</ele>
        <time>2019-02-09T10:39:04Z</time>
      </trkpt>
      <trkpt lat="42.835397" lon="0.497459">
        <ele>1889.8</ele>
        <time>2019-02-09T10:39:17Z</time>
      </trkpt>
      <trkpt lat="42.835494" lon="0.497452">
        <ele>1890.5</ele>
        <time>2019-02-09T10:39:29Z</time>
      </trkpt>
      <trkpt lat="42.835592" lon="0.497422">
        <ele>1891.3</ele>
        <time>2019-02-09T10:39:41Z</time>
      </trkpt>
      <trkpt lat="42.835692" lon="0.497400">
        <ele>1892.0</ele>
        <time>2019-02-09T10:39:53Z</time>
      </trkpt>
      <trkpt lat="42.835795" lon="0.497385">
        <ele>1892.7</ele>
        <time>2019-02-09T10:40:05Z</time>
      </trkpt>
      <trkpt lat="42.835887" lon="0.497373">
        <ele>1893.6</ele>
        <time>2019-02-09T10:40:16Z</time>
      </trkpt>
      <trkpt lat="42.835978" lon="0.497358">
        <ele>1894.5</ele>
        <time>2019-02-09T10:40:26Z</time>
      </trkpt>
      <trkpt lat="42.836075" lon="0.497348">
        <ele>1895.2</ele>
        <time>2019-02-09T10:40:36Z</time>
      </trkpt>
      <trkpt lat="42.836167" lon="0.497307">
        <ele>1895.4</ele>
        <time>2019-02-09T10:40:46Z</time>
      </trkpt>
      <trkpt lat="42.836260" lon="0.497263">
        <ele>1896.0</ele>
        <time>2019-02-09T10:40:57Z</time>
      </trkpt>
      <trkpt lat="42.836352" lon="0.497225">
        <ele>1896.0</ele>
        <time>2019-02-09T10:41:07Z</time>
      </trkpt>
      <trkpt lat="42.836440" lon="0.497191">
        <ele>1895.8</ele>
        <time>2019-02-09T10:41:17Z</time>
      </trkpt>
      <trkpt lat="42.836536" lon="0.497156">
        <ele>1895.9</ele>
        <time>2019-02-09T10:41:27Z</time>
      </trkpt>
      <trkpt lat="42.836629" lon="0.497131">
        <ele>1896.1</ele>
        <time>2019-02-09T10:41:37Z</time>
      </trkpt>
      <trkpt lat="42.836732" lon="0.497119">
        <ele>1896.2</ele>
        <time>2019-02-09T10:41:49Z</time>
      </trkpt>
      <trkpt lat="42.836833" lon="0.497121">
        <ele>1896.4</ele>
        <time>2019-02-09T10:42:01Z</time>
      </trkpt>
      <trkpt lat="42.836935" lon="0.497140">
        <ele>1897.3</ele>
        <time>2019-02-09T10:42:14Z</time>
      </trkpt>
      <trkpt lat="42.837041" lon="0.497186">
        <ele>1899.4</ele>
        <time>2019-02-09T10:42:30Z</time>
      </trkpt>
      <trkpt lat="42.837130" lon="0.497253">
        <ele>1902.7</ele>
        <time>2019-02-09T10:42:46Z</time>
      </trkpt>
      <trkpt lat="42.837219" lon="0.497300">
        <ele>1905.9</ele>
        <time>2019-02-09T10:43:01Z</time>
      </trkpt>
      <trkpt lat="42.837310" lon="0.497340">
        <ele>1908.3</ele>
        <time>2019-02-09T10:43:16Z</time>
      </trkpt>
      <trkpt lat="42.837395" lon="0.497391">
        <ele>1910.3</ele>
        <time>2019-02-09T10:43:30Z</time>
      </trkpt>
      <trkpt lat="42.837441" lon="0.497479">
        <ele>1911.2</ele>
        <time>2019-02-09T10:45:45Z</time>
      </trkpt>
      <trkpt lat="42.837535" lon="0.497536">
        <ele>1912.3</ele>
        <time>2019-02-09T10:46:01Z</time>
      </trkpt>
      <trkpt lat="42.837648" lon="0.497560">
        <ele>1913.4</ele>
        <time>2019-02-09T10:46:15Z</time>
      </trkpt>
      <trkpt lat="42.837742" lon="0.497591">
        <ele>1914.7</ele>
        <time>2019-02-09T10:46:27Z</time>
      </trkpt>
      <trkpt lat="42.837833" lon="0.497616">
        <ele>1916.2</ele>
        <time>2019-02-09T10:46:41Z</time>
      </trkpt>
      <trkpt lat="42.837871" lon="0.497660">
        <ele>1917.0</ele>
        <time>2019-02-09T10:50:59Z</time>
      </trkpt>
      <trkpt lat="42.837958" lon="0.497651">
        <ele>1916.6</ele>
        <time>2019-02-09T10:52:14Z</time>
      </trkpt>
      <trkpt lat="42.838041" lon="0.497558">
        <ele>1916.3</ele>
        <time>2019-02-09T10:52:30Z</time>
      </trkpt>
      <trkpt lat="42.838122" lon="0.497461">
        <ele>1916.2</ele>
        <time>2019-02-09T10:52:42Z</time>
      </trkpt>
      <trkpt lat="42.838170" lon="0.497360">
        <ele>1915.7</ele>
        <time>2019-02-09T10:52:54Z</time>
      </trkpt>
      <trkpt lat="42.838255" lon="0.497259">
        <ele>1915.6</ele>
        <time>2019-02-09T10:53:05Z</time>
      </trkpt>
      <trkpt lat="42.838313" lon="0.497164">
        <ele>1915.6</ele>
        <time>2019-02-09T10:53:17Z</time>
      </trkpt>
      <trkpt lat="42.838345" lon="0.497051">
        <ele>1915.7</ele>
        <time>2019-02-09T10:53:28Z</time>
      </trkpt>
      <trkpt lat="42.838407" lon="0.496949">
        <ele>1915.4</ele>
        <time>2019-02-09T10:53:40Z</time>
      </trkpt>
      <trkpt lat="42.838432" lon="0.496839">
        <ele>1915.1</ele>
        <time>2019-02-09T10:53:51Z</time>
      </trkpt>
      <trkpt lat="42.838482" lon="0.496739">
        <ele>1914.7</ele>
        <time>2019-02-09T10:54:02Z</time>
      </trkpt>
      <trkpt lat="42.838534" lon="0.496633">
        <ele>1913.7</ele>
        <time>2019-02-09T10:54:14Z</time>
      </trkpt>
      <trkpt lat="42.838588" lon="0.496550">
        <ele>1913.0</ele>
        <time>2019-02-09T10:54:24Z</time>
      </trkpt>
      <trkpt lat="42.838646" lon="0.496459">
        <ele>1912.8</ele>
        <time>2019-02-09T10:54:34Z</time>
      </trkpt>
      <trkpt lat="42.838701" lon="0.496355">
        <ele>1912.6</ele>
        <time>2019-02-09T10:54:44Z</time>
      </trkpt>
      <trkpt lat="42.838774" lon="0.496269">
        <ele>1912.0</ele>
        <time>2019-02-09T10:54:54Z</time>
      </trkpt>
      <trkpt lat="42.838837" lon="0.496171">
        <ele>1911.7</ele>
        <time>2019-02-09T10:55:05Z</time>
      </trkpt>
      <trkpt lat="42.838898" lon="0.496074">
        <ele>1911.1</ele>
        <time>2019-02-09T10:55:16Z</time>
      </trkpt>
      <trkpt lat="42.838969" lon="0.495973">
        <ele>1910.3</ele>
        <time>2019-02-09T10:55:27Z</time>
      </trkpt>
      <trkpt lat="42.839036" lon="0.495894">
        <ele>1909.2</ele>
        <time>2019-02-09T10:55:37Z</time>
      </trkpt>
      <trkpt lat="42.839112" lon="0.495814">
        <ele>1908.6</ele>
        <time>2019-02-09T10:55:47Z</time>
      </trkpt>
      <trkpt lat="42.839187" lon="0.495726">
        <ele>1908.1</ele>
        <time>2019-02-09T10:55:57Z</time>
      </trkpt>
      <trkpt lat="42.839245" lon="0.495623">
        <ele>1907.2</ele>
        <time>2019-02-09T10:56:07Z</time>
      </trkpt>
      <trkpt lat="42.839304" lon="0.495533">
        <ele>1906.6</ele>
        <time>2019-02-09T10:56:16Z</time>
      </trkpt>
      <trkpt lat="42.839360" lon="0.495420">
        <ele>1905.8</ele>
        <time>2019-02-09T10:56:26Z</time>
      </trkpt>
      <trkpt lat="42.839422" lon="0.495322">
        <ele>1904.9</ele>
        <time>2019-02-09T10:56:35Z</time>
      </trkpt>
      <trkpt lat="42.839488" lon="0.495233">
        <ele>1903.6</ele>
        <time>2019-02-09T10:56:45Z</time>
      </trkpt>
      <trkpt lat="42.839554" lon="0.495130">
        <ele>1902.5</ele>
        <time>2019-02-09T10:56:55Z</time>
      </trkpt>
      <trkpt lat="42.839619" lon="0.495045">
        <ele>1901.8</ele>
        <time>2019-02-09T10:57:04Z</time>
      </trkpt>
      <trkpt lat="42.839695" lon="0.494963">
        <ele>1901.2</ele>
        <time>2019-02-09T10:57:13Z</time>
      </trkpt>
      <trkpt lat="42.839759" lon="0.494875">
        <ele>1900.7</ele>
        <time>2019-02-09T10:57:22Z</time>
      </trkpt>
      <trkpt lat="42.839815" lon="0.494782">
        <ele>1900.2</ele>
        <time>2019-02-09T10:57:31Z</time>
      </trkpt>
      <trkpt lat="42.839873" lon="0.494686">
        <ele>1899.5</ele>
        <time>2019-02-09T10:57:40Z</time>
      </trkpt>
      <trkpt lat="42.839923" lon="0.494586">
        <ele>1898.9</ele>
        <time>2019-02-09T10:57:49Z</time>
      </trkpt>
      <trkpt lat="42.839979" lon="0.494481">
        <ele>1898.7</ele>
        <time>2019-02-09T10:57:58Z</time>
      </trkpt>
      <trkpt lat="42.840044" lon="0.494376">
        <ele>1898.5</ele>
        <time>2019-02-09T10:58:07Z</time>
      </trkpt>
      <trkpt lat="42.840090" lon="0.494270">
        <ele>1898.2</ele>
        <time>2019-02-09T10:58:16Z</time>
      </trkpt>
      <trkpt lat="42.840144" lon="0.494167">
        <ele>1898.2</ele>
        <time>2019-02-09T10:58:25Z</time>
      </trkpt>
      <trkpt lat="42.840198" lon="0.494049">
        <ele>1898.2</ele>
        <time>2019-02-09T10:58:35Z</time>
      </trkpt>
      <trkpt lat="42.840235" lon="0.493931">
        <ele>1898.5</ele>
        <time>2019-02-09T10:58:44Z</time>
      </trkpt>
      <trkpt lat="42.840287" lon="0.493827">
        <ele>1898.5</ele>
        <time>2019-02-09T10:58:53Z</time>
      </trkpt>
      <trkpt lat="42.840334" lon="0.493726">
        <ele>1898.7</ele>
        <time>2019-02-09T10:59:03Z</time>
      </trkpt>
      <trkpt lat="42.840397" lon="0.493625">
        <ele>1899.3</ele>
        <time>2019-02-09T10:59:13Z</time>
      </trkpt>
      <trkpt lat="42.840451" lon="0.493517">
        <ele>1900.4</ele>
        <time>2019-02-09T10:59:25Z</time>
      </trkpt>
      <trkpt lat="42.840503" lon="0.493405">
        <ele>1901.6</ele>
        <time>2019-02-09T10:59:37Z</time>
      </trkpt>
      <trkpt lat="42.840559" lon="0.493294">
        <ele>1902.9</ele>
        <time>2019-02-09T10:59:48Z</time>
      </trkpt>
      <trkpt lat="42.840626" lon="0.493193">
        <ele>1904.7</ele>
        <time>2019-02-09T11:00:01Z</time>
      </trkpt>
      <trkpt lat="42.840679" lon="0.493101">
        <ele>1905.9</ele>
        <time>2019-02-09T11:00:12Z</time>
      </trkpt>
      <trkpt lat="42.840732" lon="0.492996">
        <ele>1906.9</ele>
        <time>2019-02-09T11:00:24Z</time>
      </trkpt>
      <trkpt lat="42.840786" lon="0.492900">
        <ele>1907.6</ele>
        <time>2019-02-09T11:00:35Z</time>
      </trkpt>
      <trkpt lat="42.840827" lon="0.492791">
        <ele>1909.1</ele>
        <time>2019-02-09T11:00:49Z</time>
      </trkpt>
      <trkpt lat="42.840886" lon="0.492691">
        <ele>1909.8</ele>
        <time>2019-02-09T11:01:02Z</time>
      </trkpt>
      <trkpt lat="42.840945" lon="0.492587">
        <ele>1911.2</ele>
        <time>2019-02-09T11:01:16Z</time>
      </trkpt>
      <trkpt lat="42.841007" lon="0.492492">
        <ele>1912.8</ele>
        <time>2019-02-09T11:01:30Z</time>
      </trkpt>
      <trkpt lat="42.841068" lon="0.492403">
        <ele>1914.5</ele>
        <time>2019-02-09T11:01:43Z</time>
      </trkpt>
      <trkpt lat="42.841141" lon="0.492327">
        <ele>1915.7</ele>
        <time>2019-02-09T11:01:56Z</time>
      </trkpt>
      <trkpt lat="42.841203" lon="0.492234">
        <ele>1917.4</ele>
        <time>2019-02-09T11:02:09Z</time>
      </trkpt>
      <trkpt lat="42.841276" lon="0.492145">
        <ele>1919.3</ele>
        <time>2019-02-09T11:02:23Z</time>
      </trkpt>
      <trkpt lat="42.841355" lon="0.492072">
        <ele>1921.3</ele>
        <time>2019-02-09T11:02:37Z</time>
      </trkpt>
      <trkpt lat="42.841435" lon="0.492003">
        <ele>1923.3</ele>
        <time>2019-02-09T11:02:52Z</time>
      </trkpt>
      <trkpt lat="42.841518" lon="0.491948">
        <ele>1925.4</ele>
        <time>2019-02-09T11:03:07Z</time>
      </trkpt>
      <trkpt lat="42.841602" lon="0.491900">
        <ele>1927.2</ele>
        <time>2019-02-09T11:03:22Z</time>
      </trkpt>
      <trkpt lat="42.841688" lon="0.491840">
        <ele>1928.8</ele>
        <time>2019-02-09T11:03:36Z</time>
      </trkpt>
      <trkpt lat="42.841779" lon="0.491788">
        <ele>1930.3</ele>
        <time>2019-02-09T11:03:48Z</time>
      </trkpt>
      <trkpt lat="42.841851" lon="0.491710">
        <ele>1931.6</ele>
        <time>2019-02-09T11:04:01Z</time>
      </trkpt>
      <trkpt lat="42.841922" lon="0.491612">
        <ele>1932.9</ele>
        <time>2019-02-09T11:04:13Z</time>
      </trkpt>
      <trkpt lat="42.841989" lon="0.491518">
        <ele>1933.3</ele>
        <time>2019-02-09T11:04:24Z</time>
      </trkpt>
      <trkpt lat="42.842051" lon="0.491405">
        <ele>1933.8</ele>
        <time>2019-02-09T11:04:36Z</time>
      </trkpt>
      <trkpt lat="42.842088" lon="0.491295">
        <ele>1933.7</ele>
        <time>2019-02-09T11:04:48Z</time>
      </trkpt>
      <trkpt lat="42.842142" lon="0.491264">
        <ele>1934.7</ele>
        <time>2019-02-09T11:11:31Z</time>
      </trkpt>
      <trkpt lat="42.842195" lon="0.491157">
        <ele>1934.9</ele>
        <time>2019-02-09T11:11:44Z</time>
      </trkpt>
      <trkpt lat="42.842248" lon="0.491053">
        <ele>1935.1</ele>
        <time>2019-02-09T11:11:57Z</time>
      </trkpt>
      <trkpt lat="42.842301" lon="0.490951">
        <ele>1935.4</ele>
        <time>2019-02-09T11:12:09Z</time>
      </trkpt>
      <trkpt lat="42.842345" lon="0.490832">
        <ele>1935.6</ele>
        <time>2019-02-09T11:12:21Z</time>
      </trkpt>
      <trkpt lat="42.842388" lon="0.490720">
        <ele>1935.8</ele>
        <time>2019-02-09T11:12:31Z</time>
      </trkpt>
      <trkpt lat="42.842438" lon="0.490614">
        <ele>1935.9</ele>
        <time>2019-02-09T11:12:41Z</time>
      </trkpt>
      <trkpt lat="42.842494" lon="0.490511">
        <ele>1936.1</ele>
        <time>2019-02-09T11:12:51Z</time>
      </trkpt>
      <trkpt lat="42.842554" lon="0.490421">
        <ele>1936.5</ele>
        <time>2019-02-09T11:13:01Z</time>
      </trkpt>
      <trkpt lat="42.842608" lon="0.490304">
        <ele>1937.0</ele>
        <time>2019-02-09T11:13:12Z</time>
      </trkpt>
      <trkpt lat="42.842650" lon="0.490199">
        <ele>1937.5</ele>
        <time>2019-02-09T11:13:21Z</time>
      </trkpt>
      <trkpt lat="42.842704" lon="0.490073">
        <ele>1937.5</ele>
        <time>2019-02-09T11:13:32Z</time>
      </trkpt>
      <trkpt lat="42.842759" lon="0.489970">
        <ele>1936.9</ele>
        <time>2019-02-09T11:13:41Z</time>
      </trkpt>
      <trkpt lat="42.842809" lon="0.489864">
        <ele>1935.8</ele>
        <time>2019-02-09T11:13:52Z</time>
      </trkpt>
      <trkpt lat="42.842852" lon="0.489747">
        <ele>1935.0</ele>
        <time>2019-02-09T11:14:02Z</time>
      </trkpt>
      <trkpt lat="42.842912" lon="0.489645">
        <ele>1934.0</ele>
        <time>2019-02-09T11:14:12Z</time>
      </trkpt>
      <trkpt lat="42.842972" lon="0.489543">
        <ele>1933.1</ele>
        <time>2019-02-09T11:14:23Z</time>
      </trkpt>
      <trkpt lat="42.843016" lon="0.489432">
        <ele>1932.1</ele>
        <time>2019-02-09T11:14:32Z</time>
      </trkpt>
      <trkpt lat="42.843075" lon="0.489333">
        <ele>1930.9</ele>
        <time>2019-02-09T11:14:41Z</time>
      </trkpt>
      <trkpt lat="42.843136" lon="0.489235">
        <ele>1929.9</ele>
        <time>2019-02-09T11:14:50Z</time>
      </trkpt>
      <trkpt lat="42.843195" lon="0.489130">
        <ele>1929.8</ele>
        <time>2019-02-09T11:15:01Z</time>
      </trkpt>
      <trkpt lat="42.843237" lon="0.489022">
        <ele>1930.3</ele>
        <time>2019-02-09T11:15:11Z</time>
      </trkpt>
      <trkpt lat="42.843273" lon="0.488904">
        <ele>1930.4</ele>
        <time>2019-02-09T11:15:19Z</time>
      </trkpt>
      <trkpt lat="42.843312" lon="0.488797">
        <ele>1930.2</ele>
        <time>2019-02-09T11:15:27Z</time>
      </trkpt>
      <trkpt lat="42.843371" lon="0.488690">
        <ele>1929.8</ele>
        <time>2019-02-09T11:15:36Z</time>
      </trkpt>
      <trkpt lat="42.843417" lon="0.488576">
        <ele>1929.4</ele>
        <time>2019-02-09T11:15:44Z</time>
      </trkpt>
      <trkpt lat="42.843470" lon="0.488475">
        <ele>1928.8</ele>
        <time>2019-02-09T11:15:54Z</time>
      </trkpt>
      <trkpt lat="42.843526" lon="0.488376">
        <ele>1929.5</ele>
        <time>2019-02-09T11:16:04Z</time>
      </trkpt>
      <trkpt lat="42.843594" lon="0.488284">
        <ele>1930.6</ele>
        <time>2019-02-09T11:16:15Z</time>
      </trkpt>
      <trkpt lat="42.843654" lon="0.488169">
        <ele>1931.8</ele>
        <time>2019-02-09T11:16:26Z</time>
      </trkpt>
      <trkpt lat="42.843712" lon="0.488074">
        <ele>1933.3</ele>
        <time>2019-02-09T11:16:37Z</time>
      </trkpt>
      <trkpt lat="42.843779" lon="0.487975">
        <ele>1935.1</ele>
        <time>2019-02-09T11:16:51Z</time>
      </trkpt>
      <trkpt lat="42.843851" lon="0.487887">
        <ele>1937.2</ele>
        <time>2019-02-09T11:17:04Z</time>
      </trkpt>
      <trkpt lat="42.843912" lon="0.487790">
        <ele>1939.5</ele>
        <time>2019-02-09T11:17:17Z</time>
      </trkpt>
      <trkpt lat="42.843983" lon="0.487697">
        <ele>1942.0</ele>
        <time>2019-02-09T11:17:31Z</time>
      </trkpt>
      <trkpt lat="42.844057" lon="0.487608">
        <ele>1944.6</ele>
        <time>2019-02-09T11:17:46Z</time>
      </trkpt>
      <trkpt lat="42.844138" lon="0.487533">
        <ele>1946.9</ele>
        <time>2019-02-09T11:17:59Z</time>
      </trkpt>
      <trkpt lat="42.844218" lon="0.487450">
        <ele>1949.1</ele>
        <time>2019-02-09T11:18:14Z</time>
      </trkpt>
      <trkpt lat="42.844289" lon="0.487365">
        <ele>1951.5</ele>
        <time>2019-02-09T11:18:27Z</time>
      </trkpt>
      <trkpt lat="42.844364" lon="0.487282">
        <ele>1953.7</ele>
        <time>2019-02-09T11:18:40Z</time>
      </trkpt>
      <trkpt lat="42.844444" lon="0.487211">
        <ele>1956.4</ele>
        <time>2019-02-09T11:18:54Z</time>
      </trkpt>
      <trkpt lat="42.844524" lon="0.487154">
        <ele>1958.9</ele>
        <time>2019-02-09T11:19:17Z</time>
      </trkpt>
      <trkpt lat="42.844603" lon="0.487089">
        <ele>1960.3</ele>
        <time>2019-02-09T11:19:29Z</time>
      </trkpt>
      <trkpt lat="42.844692" lon="0.487029">
        <ele>1962.1</ele>
        <time>2019-02-09T11:19:42Z</time>
      </trkpt>
      <trkpt lat="42.844773" lon="0.486954">
        <ele>1962.9</ele>
        <time>2019-02-09T11:19:52Z</time>
      </trkpt>
      <trkpt lat="42.844857" lon="0.486884">
        <ele>1963.9</ele>
        <time>2019-02-09T11:20:02Z</time>
      </trkpt>
      <trkpt lat="42.844935" lon="0.486824">
        <ele>1964.7</ele>
        <time>2019-02-09T11:20:11Z</time>
      </trkpt>
      <trkpt lat="42.845019" lon="0.486771">
        <ele>1965.3</ele>
        <time>2019-02-09T11:20:20Z</time>
      </trkpt>
      <trkpt lat="42.845105" lon="0.486706">
        <ele>1966.3</ele>
        <time>2019-02-09T11:20:30Z</time>
      </trkpt>
      <trkpt lat="42.845191" lon="0.486651">
        <ele>1967.1</ele>
        <time>2019-02-09T11:20:40Z</time>
      </trkpt>
      <trkpt lat="42.845272" lon="0.486599">
        <ele>1967.7</ele>
        <time>2019-02-09T11:20:50Z</time>
      </trkpt>
      <trkpt lat="42.845348" lon="0.486531">
        <ele>1968.4</ele>
        <time>2019-02-09T11:20:59Z</time>
      </trkpt>
      <trkpt lat="42.845428" lon="0.486466">
        <ele>1968.7</ele>
        <time>2019-02-09T11:21:08Z</time>
      </trkpt>
      <trkpt lat="42.845508" lon="0.486398">
        <ele>1968.9</ele>
        <time>2019-02-09T11:21:18Z</time>
      </trkpt>
      <trkpt lat="42.845586" lon="0.486320">
        <ele>1968.8</ele>
        <time>2019-02-09T11:21:28Z</time>
      </trkpt>
      <trkpt lat="42.845663" lon="0.486245">
        <ele>1968.7</ele>
        <time>2019-02-09T11:21:38Z</time>
      </trkpt>
      <trkpt lat="42.845734" lon="0.486169">
        <ele>1968.8</ele>
        <time>2019-02-09T11:21:48Z</time>
      </trkpt>
      <trkpt lat="42.845807" lon="0.486092">
        <ele>1968.7</ele>
        <time>2019-02-09T11:21:58Z</time>
      </trkpt>
      <trkpt lat="42.845879" lon="0.486017">
        <ele>1968.4</ele>
        <time>2019-02-09T11:22:08Z</time>
      </trkpt>
      <trkpt lat="42.845956" lon="0.485926">
        <ele>1968.1</ele>
        <time>2019-02-09T11:22:18Z</time>
      </trkpt>
      <trkpt lat="42.846030" lon="0.485834">
        <ele>1967.8</ele>
        <time>2019-02-09T11:22:28Z</time>
      </trkpt>
      <trkpt lat="42.846092" lon="0.485748">
        <ele>1967.6</ele>
        <time>2019-02-09T11:22:37Z</time>
      </trkpt>
      <trkpt lat="42.846154" lon="0.485658">
        <ele>1967.2</ele>
        <time>2019-02-09T11:22:47Z</time>
      </trkpt>
      <trkpt lat="42.846210" lon="0.485561">
        <ele>1966.1</ele>
        <time>2019-02-09T11:23:15Z</time>
      </trkpt>
      <trkpt lat="42.846244" lon="0.485447">
        <ele>1965.4</ele>
        <time>2019-02-09T11:23:25Z</time>
      </trkpt>
      <trkpt lat="42.846238" lon="0.485314">
        <ele>1963.8</ele>
        <time>2019-02-09T11:23:54Z</time>
      </trkpt>
      <trkpt lat="42.846231" lon="0.485170">
        <ele>1962.4</ele>
        <time>2019-02-09T11:24:14Z</time>
      </trkpt>
      <trkpt lat="42.846219" lon="0.485057">
        <ele>1960.2</ele>
        <time>2019-02-09T11:25:59Z</time>
      </trkpt>
      <trkpt lat="42.846215" lon="0.484944">
        <ele>1959.4</ele>
        <time>2019-02-09T11:26:36Z</time>
      </trkpt>
      <trkpt lat="42.846205" lon="0.484813">
        <ele>1958.1</ele>
        <time>2019-02-09T11:26:45Z</time>
      </trkpt>
      <trkpt lat="42.846179" lon="0.484671">
        <ele>1956.1</ele>
        <time>2019-02-09T11:26:56Z</time>
      </trkpt>
      <trkpt lat="42.846185" lon="0.484542">
        <ele>1954.3</ele>
        <time>2019-02-09T11:27:07Z</time>
      </trkpt>
      <trkpt lat="42.846158" lon="0.484377">
        <ele>1952.8</ele>
        <time>2019-02-09T11:27:17Z</time>
      </trkpt>
      <trkpt lat="42.846132" lon="0.484237">
        <ele>1951.5</ele>
        <time>2019-02-09T11:27:26Z</time>
      </trkpt>
      <trkpt lat="42.846115" lon="0.484108">
        <ele>1950.7</ele>
        <time>2019-02-09T11:27:35Z</time>
      </trkpt>
      <trkpt lat="42.846108" lon="0.483985">
        <ele>1949.5</ele>
        <time>2019-02-09T11:27:44Z</time>
      </trkpt>
      <trkpt lat="42.846105" lon="0.483848">
        <ele>1948.4</ele>
        <time>2019-02-09T11:27:54Z</time>
      </trkpt>
      <trkpt lat="42.846099" lon="0.483709">
        <ele>1947.7</ele>
        <time>2019-02-09T11:28:04Z</time>
      </trkpt>
      <trkpt lat="42.846089" lon="0.483587">
        <ele>1947.0</ele>
        <time>2019-02-09T11:28:15Z</time>
      </trkpt>
      <trkpt lat="42.846068" lon="0.483464">
        <ele>1946.5</ele>
        <time>2019-02-09T11:28:37Z</time>
      </trkpt>
      <trkpt lat="42.846038" lon="0.483334">
        <ele>1946.2</ele>
        <time>2019-02-09T11:28:48Z</time>
      </trkpt>
      <trkpt lat="42.846019" lon="0.483203">
        <ele>1946.1</ele>
        <time>2019-02-09T11:28:59Z</time>
      </trkpt>
      <trkpt lat="42.845994" lon="0.483077">
        <ele>1946.3</ele>
        <time>2019-02-09T11:29:10Z</time>
      </trkpt>
      <trkpt lat="42.845958" lon="0.482948">
        <ele>1946.8</ele>
        <time>2019-02-09T11:29:23Z</time>
      </trkpt>
      <trkpt lat="42.845918" lon="0.482825">
        <ele>1948.2</ele>
        <time>2019-02-09T11:29:35Z</time>
      </trkpt>
      <trkpt lat="42.845879" lon="0.482719">
        <ele>1949.6</ele>
        <time>2019-02-09T11:29:48Z</time>
      </trkpt>
      <trkpt lat="42.845856" lon="0.482589">
        <ele>1951.2</ele>
        <time>2019-02-09T11:30:01Z</time>
      </trkpt>
      <trkpt lat="42.845844" lon="0.482455">
        <ele>1951.9</ele>
        <time>2019-02-09T11:30:12Z</time>
      </trkpt>
      <trkpt lat="42.845835" lon="0.482309">
        <ele>1952.7</ele>
        <time>2019-02-09T11:30:25Z</time>
      </trkpt>
      <trkpt lat="42.845833" lon="0.482163">
        <ele>1953.3</ele>
        <time>2019-02-09T11:30:36Z</time>
      </trkpt>
      <trkpt lat="42.845831" lon="0.482043">
        <ele>1954.1</ele>
        <time>2019-02-09T11:30:47Z</time>
      </trkpt>
      <trkpt lat="42.845827" lon="0.481918">
        <ele>1955.2</ele>
        <time>2019-02-09T11:30:59Z</time>
      </trkpt>
      <trkpt lat="42.845824" lon="0.481790">
        <ele>1956.7</ele>
        <time>2019-02-09T11:31:13Z</time>
      </trkpt>
      <trkpt lat="42.845826" lon="0.481638">
        <ele>1958.2</ele>
        <time>2019-02-09T11:31:27Z</time>
      </trkpt>
      <trkpt lat="42.845806" lon="0.481521">
        <ele>1959.8</ele>
        <time>2019-02-09T11:32:00Z</time>
      </trkpt>
      <trkpt lat="42.845775" lon="0.481398">
        <ele>1960.7</ele>
        <time>2019-02-09T11:32:14Z</time>
      </trkpt>
      <trkpt lat="42.845771" lon="0.481282">
        <ele>1962.3</ele>
        <time>2019-02-09T11:32:27Z</time>
      </trkpt>
      <trkpt lat="42.845751" lon="0.481149">
        <ele>1964.0</ele>
        <time>2019-02-09T11:32:46Z</time>
      </trkpt>
      <trkpt lat="42.845721" lon="0.481017">
        <ele>1966.3</ele>
        <time>2019-02-09T11:33:04Z</time>
      </trkpt>
      <trkpt lat="42.845711" lon="0.480882">
        <ele>1967.9</ele>
        <time>2019-02-09T11:33:20Z</time>
      </trkpt>
      <trkpt lat="42.845696" lon="0.480758">
        <ele>1969.8</ele>
        <time>2019-02-09T11:33:34Z</time>
      </trkpt>
      <trkpt lat="42.845686" lon="0.480633">
        <ele>1971.6</ele>
        <time>2019-02-09T11:33:48Z</time>
      </trkpt>
      <trkpt lat="42.845677" lon="0.480526">
        <ele>1973.1</ele>
        <time>2019-02-09T11:34:02Z</time>
      </trkpt>
      <trkpt lat="42.845658" lon="0.480398">
        <ele>1974.9</ele>
        <time>2019-02-09T11:34:16Z</time>
      </trkpt>
      <trkpt lat="42.845642" lon="0.480272">
        <ele>1976.8</ele>
        <time>2019-02-09T11:34:32Z</time>
      </trkpt>
      <trkpt lat="42.845630" lon="0.480146">
        <ele>1978.2</ele>
        <time>2019-02-09T11:34:48Z</time>
      </trkpt>
      <trkpt lat="42.845605" lon="0.480018">
        <ele>1980.1</ele>
        <time>2019-02-09T11:35:02Z</time>
      </trkpt>
      <trkpt lat="42.845588" lon="0.479904">
        <ele>1982.1</ele>
        <time>2019-02-09T11:35:14Z</time>
      </trkpt>
      <trkpt lat="42.845571" lon="0.479785">
        <ele>1984.0</ele>
        <time>2019-02-09T11:35:29Z</time>
      </trkpt>
      <trkpt lat="42.845563" lon="0.479634">
        <ele>1985.5</ele>
        <time>2019-02-09T11:35:59Z</time>
      </trkpt>
      <trkpt lat="42.845551" lon="0.479504">
        <ele>1987.3</ele>
        <time>2019-02-09T11:36:14Z</time>
      </trkpt>
      <trkpt lat="42.845550" lon="0.479374">
        <ele>1989.0</ele>
        <time>2019-02-09T11:36:27Z</time>
      </trkpt>
      <trkpt lat="42.845542" lon="0.479229">
        <ele>1990.0</ele>
        <time>2019-02-09T11:36:38Z</time>
      </trkpt>
      <trkpt lat="42.845553" lon="0.479107">
        <ele>1990.9</ele>
        <time>2019-02-09T11:36:49Z</time>
      </trkpt>
      <trkpt lat="42.845551" lon="0.478962">
        <ele>1992.2</ele>
        <time>2019-02-09T11:37:02Z</time>
      </trkpt>
      <trkpt lat="42.845553" lon="0.478818">
        <ele>1992.8</ele>
        <time>2019-02-09T11:37:13Z</time>
      </trkpt>
      <trkpt lat="42.845555" lon="0.478679">
        <ele>1993.7</ele>
        <time>2019-02-09T11:37:24Z</time>
      </trkpt>
      <trkpt lat="42.845555" lon="0.478514">
        <ele>1994.6</ele>
        <time>2019-02-09T11:37:36Z</time>
      </trkpt>
      <trkpt lat="42.845543" lon="0.478379">
        <ele>1995.7</ele>
        <time>2019-02-09T11:37:47Z</time>
      </trkpt>
      <trkpt lat="42.845537" lon="0.478250">
        <ele>1996.4</ele>
        <time>2019-02-09T11:37:57Z</time>
      </trkpt>
      <trkpt lat="42.845534" lon="0.478110">
        <ele>1997.4</ele>
        <time>2019-02-09T11:38:08Z</time>
      </trkpt>
      <trkpt lat="42.845524" lon="0.477981">
        <ele>1998.3</ele>
        <time>2019-02-09T11:38:18Z</time>
      </trkpt>
      <trkpt lat="42.845512" lon="0.477845">
        <ele>1999.2</ele>
        <time>2019-02-09T11:38:29Z</time>
      </trkpt>
      <trkpt lat="42.845505" lon="0.477713">
        <ele>2000.8</ele>
        <time>2019-02-09T11:38:39Z</time>
      </trkpt>
      <trkpt lat="42.845495" lon="0.477585">
        <ele>2001.6</ele>
        <time>2019-02-09T11:38:48Z</time>
      </trkpt>
      <trkpt lat="42.845496" lon="0.477469">
        <ele>2002.9</ele>
        <time>2019-02-09T11:39:00Z</time>
      </trkpt>
      <trkpt lat="42.845493" lon="0.477332">
        <ele>2004.1</ele>
        <time>2019-02-09T11:39:12Z</time>
      </trkpt>
      <trkpt lat="42.845501" lon="0.477184">
        <ele>2005.6</ele>
        <time>2019-02-09T11:39:25Z</time>
      </trkpt>
      <trkpt lat="42.845520" lon="0.477039">
        <ele>2006.8</ele>
        <time>2019-02-09T11:39:37Z</time>
      </trkpt>
      <trkpt lat="42.845539" lon="0.476904">
        <ele>2008.1</ele>
        <time>2019-02-09T11:39:49Z</time>
      </trkpt>
      <trkpt lat="42.845542" lon="0.476775">
        <ele>2009.4</ele>
        <time>2019-02-09T11:40:00Z</time>
      </trkpt>
      <trkpt lat="42.845553" lon="0.476653">
        <ele>2010.4</ele>
        <time>2019-02-09T11:40:11Z</time>
      </trkpt>
      <trkpt lat="42.845573" lon="0.476526">
        <ele>2011.6</ele>
        <time>2019-02-09T11:40:21Z</time>
      </trkpt>
      <trkpt lat="42.845593" lon="0.476409">
        <ele>2012.7</ele>
        <time>2019-02-09T11:40:31Z</time>
      </trkpt>
      <trkpt lat="42.845611" lon="0.476292">
        <ele>2013.8</ele>
        <time>2019-02-09T11:40:40Z</time>
      </trkpt>
      <trkpt lat="42.845626" lon="0.476179">
        <ele>2015.1</ele>
        <time>2019-02-09T11:40:50Z</time>
      </trkpt>
      <trkpt lat="42.845652" lon="0.476061">
        <ele>2016.5</ele>
        <time>2019-02-09T11:41:02Z</time>
      </trkpt>
      <trkpt lat="42.845686" lon="0.475929">
        <ele>2017.2</ele>
        <time>2019-02-09T11:41:14Z</time>
      </trkpt>
      <trkpt lat="42.845691" lon="0.475806">
        <ele>2018.5</ele>
        <time>2019-02-09T11:41:28Z</time>
      </trkpt>
      <trkpt lat="42.845714" lon="0.475697">
        <ele>2020.4</ele>
        <time>2019-02-09T11:45:19Z</time>
      </trkpt>
      <trkpt lat="42.845722" lon="0.475569">
        <ele>2019.7</ele>
        <time>2019-02-09T11:45:31Z</time>
      </trkpt>
      <trkpt lat="42.845732" lon="0.475444">
        <ele>2019.1</ele>
        <time>2019-02-09T11:45:42Z</time>
      </trkpt>
      <trkpt lat="42.845735" lon="0.475317">
        <ele>2017.7</ele>
        <time>2019-02-09T11:45:53Z</time>
      </trkpt>
      <trkpt lat="42.845738" lon="0.475191">
        <ele>2016.5</ele>
        <time>2019-02-09T11:46:04Z</time>
      </trkpt>
      <trkpt lat="42.845744" lon="0.475067">
        <ele>2015.7</ele>
        <time>2019-02-09T11:46:15Z</time>
      </trkpt>
      <trkpt lat="42.845743" lon="0.474937">
        <ele>2015.4</ele>
        <time>2019-02-09T11:46:26Z</time>
      </trkpt>
      <trkpt lat="42.845741" lon="0.474814">
        <ele>2014.9</ele>
        <time>2019-02-09T11:46:35Z</time>
      </trkpt>
      <trkpt lat="42.845732" lon="0.474685">
        <ele>2014.1</ele>
        <time>2019-02-09T11:46:46Z</time>
      </trkpt>
      <trkpt lat="42.845735" lon="0.474571">
        <ele>2013.3</ele>
        <time>2019-02-09T11:47:07Z</time>
      </trkpt>
      <trkpt lat="42.845742" lon="0.474446">
        <ele>2012.9</ele>
        <time>2019-02-09T11:47:18Z</time>
      </trkpt>
      <trkpt lat="42.845728" lon="0.474318">
        <ele>2012.4</ele>
        <time>2019-02-09T11:47:29Z</time>
      </trkpt>
      <trkpt lat="42.845742" lon="0.474193">
        <ele>2011.8</ele>
        <time>2019-02-09T11:47:39Z</time>
      </trkpt>
      <trkpt lat="42.845718" lon="0.474055">
        <ele>2011.2</ele>
        <time>2019-02-09T11:47:50Z</time>
      </trkpt>
      <trkpt lat="42.845733" lon="0.473936">
        <ele>2010.9</ele>
        <time>2019-02-09T11:48:03Z</time>
      </trkpt>
      <trkpt lat="42.845747" lon="0.473792">
        <ele>2009.9</ele>
        <time>2019-02-09T11:49:17Z</time>
      </trkpt>
      <trkpt lat="42.845755" lon="0.473666">
        <ele>2008.9</ele>
        <time>2019-02-09T11:49:27Z</time>
      </trkpt>
      <trkpt lat="42.845746" lon="0.473545">
        <ele>2007.9</ele>
        <time>2019-02-09T11:49:36Z</time>
      </trkpt>
      <trkpt lat="42.845770" lon="0.473417">
        <ele>2006.6</ele>
        <time>2019-02-09T11:49:46Z</time>
      </trkpt>
      <trkpt lat="42.845786" lon="0.473280">
        <ele>2005.7</ele>
        <time>2019-02-09T11:49:55Z</time>
      </trkpt>
      <trkpt lat="42.845811" lon="0.473146">
        <ele>2005.8</ele>
        <time>2019-02-09T11:50:06Z</time>
      </trkpt>
      <trkpt lat="42.845830" lon="0.473016">
        <ele>2005.4</ele>
        <time>2019-02-09T11:50:16Z</time>
      </trkpt>
      <trkpt lat="42.845843" lon="0.472895">
        <ele>2004.2</ele>
        <time>2019-02-09T11:50:26Z</time>
      </trkpt>
      <trkpt lat="42.845890" lon="0.472775">
        <ele>2003.3</ele>
        <time>2019-02-09T11:50:38Z</time>
      </trkpt>
      <trkpt lat="42.845915" lon="0.472644">
        <ele>2001.4</ele>
        <time>2019-02-09T11:50:52Z</time>
      </trkpt>
      <trkpt lat="42.845932" lon="0.472521">
        <ele>1999.2</ele>
        <time>2019-02-09T11:51:04Z</time>
      </trkpt>
      <trkpt lat="42.845946" lon="0.472397">
        <ele>1997.9</ele>
        <time>2019-02-09T11:51:15Z</time>
      </trkpt>
      <trkpt lat="42.845961" lon="0.472275">
        <ele>1997.1</ele>
        <time>2019-02-09T11:51:28Z</time>
      </trkpt>
      <trkpt lat="42.845981" lon="0.472149">
        <ele>1997.9</ele>
        <time>2019-02-09T11:51:42Z</time>
      </trkpt>
      <trkpt lat="42.845979" lon="0.472001">
        <ele>1999.2</ele>
        <time>2019-02-09T11:51:56Z</time>
      </trkpt>
      <trkpt lat="42.845993" lon="0.471860">
        <ele>2000.4</ele>
        <time>2019-02-09T11:52:10Z</time>
      </trkpt>
      <trkpt lat="42.845995" lon="0.471734">
        <ele>2002.5</ele>
        <time>2019-02-09T11:52:29Z</time>
      </trkpt>
      <trkpt lat="42.845978" lon="0.471603">
        <ele>2004.7</ele>
        <time>2019-02-09T11:52:48Z</time>
      </trkpt>
      <trkpt lat="42.845937" lon="0.471482">
        <ele>2007.9</ele>
        <time>2019-02-09T11:53:19Z</time>
      </trkpt>
      <trkpt lat="42.845928" lon="0.471349">
        <ele>2010.0</ele>
        <time>2019-02-09T11:53:41Z</time>
      </trkpt>
      <trkpt lat="42.845935" lon="0.471224">
        <ele>2013.5</ele>
        <time>2019-02-09T11:54:03Z</time>
      </trkpt>
      <trkpt lat="42.845936" lon="0.471086">
        <ele>2016.8</ele>
        <time>2019-02-09T11:54:26Z</time>
      </trkpt>
      <trkpt lat="42.845932" lon="0.470953">
        <ele>2019.3</ele>
        <time>2019-02-09T11:54:46Z</time>
      </trkpt>
      <trkpt lat="42.845896" lon="0.470800">
        <ele>2022.4</ele>
        <time>2019-02-09T11:55:11Z</time>
      </trkpt>
      <trkpt lat="42.845865" lon="0.470672">
        <ele>2025.7</ele>
        <time>2019-02-09T11:55:34Z</time>
      </trkpt>
      <trkpt lat="42.845841" lon="0.470547">
        <ele>2029.7</ele>
        <time>2019-02-09T11:55:57Z</time>
      </trkpt>
      <trkpt lat="42.845857" lon="0.470472">
        <ele>2032.8</ele>
        <time>2019-02-09T11:56:43Z</time>
      </trkpt>
      <trkpt lat="42.845849" lon="0.470356">
        <ele>2035.4</ele>
        <time>2019-02-09T11:57:06Z</time>
      </trkpt>
      <trkpt lat="42.845854" lon="0.470233">
        <ele>2040.8</ele>
        <time>2019-02-09T11:57:40Z</time>
      </trkpt>
      <trkpt lat="42.845852" lon="0.470117">
        <ele>2044.6</ele>
        <time>2019-02-09T11:58:11Z</time>
      </trkpt>
      <trkpt lat="42.845798" lon="0.470003">
        <ele>2048.7</ele>
        <time>2019-02-09T11:58:37Z</time>
      </trkpt>
      <trkpt lat="42.845761" lon="0.469951">
        <ele>2053.4</ele>
        <time>2019-02-09T11:59:43Z</time>
      </trkpt>
      <trkpt lat="42.845968" lon="0.468934">
        <ele>2063.5</ele>
        <time>2019-02-09T12:04:49Z</time>
      </trkpt>
      <trkpt lat="42.846050" lon="0.468864">
        <ele>2067.4</ele>
        <time>2019-02-09T12:05:28Z</time>
      </trkpt>
      <trkpt lat="42.846868" lon="0.467810">
        <ele>2095.0</ele>
        <time>2019-02-09T12:57:32Z</time>
      </trkpt>
      <trkpt lat="42.846871" lon="0.467768">
        <ele>2094.5</ele>
        <time>2019-02-09T13:22:25Z</time>
      </trkpt>
      <trkpt lat="42.846782" lon="0.467712">
        <ele>2093.8</ele>
        <time>2019-02-09T13:22:34Z</time>
      </trkpt>
      <trkpt lat="42.846693" lon="0.467665">
        <ele>2092.6</ele>
        <time>2019-02-09T13:22:43Z</time>
      </trkpt>
      <trkpt lat="42.846605" lon="0.467591">
        <ele>2090.3</ele>
        <time>2019-02-09T13:22:53Z</time>
      </trkpt>
      <trkpt lat="42.846521" lon="0.467536">
        <ele>2087.3</ele>
        <time>2019-02-09T13:23:03Z</time>
      </trkpt>
      <trkpt lat="42.846447" lon="0.467471">
        <ele>2084.5</ele>
        <time>2019-02-09T13:23:15Z</time>
      </trkpt>
      <trkpt lat="42.846367" lon="0.467413">
        <ele>2081.9</ele>
        <time>2019-02-09T13:23:26Z</time>
      </trkpt>
      <trkpt lat="42.846278" lon="0.467357">
        <ele>2078.9</ele>
        <time>2019-02-09T13:23:37Z</time>
      </trkpt>
      <trkpt lat="42.846195" lon="0.467318">
        <ele>2075.6</ele>
        <time>2019-02-09T13:23:48Z</time>
      </trkpt>
      <trkpt lat="42.846124" lon="0.467261">
        <ele>2071.5</ele>
        <time>2019-02-09T13:24:43Z</time>
      </trkpt>
      <trkpt lat="42.846037" lon="0.467227">
        <ele>2068.9</ele>
        <time>2019-02-09T13:25:06Z</time>
      </trkpt>
      <trkpt lat="42.845948" lon="0.467180">
        <ele>2066.0</ele>
        <time>2019-02-09T13:25:16Z</time>
      </trkpt>
      <trkpt lat="42.845862" lon="0.467111">
        <ele>2063.2</ele>
        <time>2019-02-09T13:25:26Z</time>
      </trkpt>
      <trkpt lat="42.845767" lon="0.467074">
        <ele>2059.4</ele>
        <time>2019-02-09T13:25:36Z</time>
      </trkpt>
      <trkpt lat="42.845668" lon="0.467054">
        <ele>2055.6</ele>
        <time>2019-02-09T13:25:53Z</time>
      </trkpt>
      <trkpt lat="42.845582" lon="0.467007">
        <ele>2053.1</ele>
        <time>2019-02-09T13:26:08Z</time>
      </trkpt>
      <trkpt lat="42.845504" lon="0.466986">
        <ele>2049.1</ele>
        <time>2019-02-09T13:26:26Z</time>
      </trkpt>
      <trkpt lat="42.845407" lon="0.466945">
        <ele>2046.2</ele>
        <time>2019-02-09T13:26:42Z</time>
      </trkpt>
      <trkpt lat="42.845312" lon="0.466918">
        <ele>2043.7</ele>
        <time>2019-02-09T13:26:53Z</time>
      </trkpt>
      <trkpt lat="42.845228" lon="0.466877">
        <ele>2041.4</ele>
        <time>2019-02-09T13:27:05Z</time>
      </trkpt>
      <trkpt lat="42.845144" lon="0.466819">
        <ele>2039.1</ele>
        <time>2019-02-09T13:27:17Z</time>
      </trkpt>
      <trkpt lat="42.845055" lon="0.466766">
        <ele>2036.7</ele>
        <time>2019-02-09T13:27:29Z</time>
      </trkpt>
      <trkpt lat="42.844972" lon="0.466736">
        <ele>2034.3</ele>
        <time>2019-02-09T13:27:41Z</time>
      </trkpt>
      <trkpt lat="42.844885" lon="0.466681">
        <ele>2032.6</ele>
        <time>2019-02-09T13:27:52Z</time>
      </trkpt>
      <trkpt lat="42.844794" lon="0.466638">
        <ele>2030.8</ele>
        <time>2019-02-09T13:28:03Z</time>
      </trkpt>
      <trkpt lat="42.844700" lon="0.466592">
        <ele>2028.9</ele>
        <time>2019-02-09T13:28:14Z</time>
      </trkpt>
      <trkpt lat="42.844607" lon="0.466556">
        <ele>2026.7</ele>
        <time>2019-02-09T13:28:25Z</time>
      </trkpt>
      <trkpt lat="42.844509" lon="0.466529">
        <ele>2025.0</ele>
        <time>2019-02-09T13:28:35Z</time>
      </trkpt>
      <trkpt lat="42.844422" lon="0.466522">
        <ele>2023.6</ele>
        <time>2019-02-09T13:28:45Z</time>
      </trkpt>
      <trkpt lat="42.844323" lon="0.466493">
        <ele>2022.1</ele>
        <time>2019-02-09T13:28:55Z</time>
      </trkpt>
      <trkpt lat="42.844231" lon="0.466451">
        <ele>2020.9</ele>
        <time>2019-02-09T13:29:05Z</time>
      </trkpt>
      <trkpt lat="42.844137" lon="0.466424">
        <ele>2019.9</ele>
        <time>2019-02-09T13:29:15Z</time>
      </trkpt>
      <trkpt lat="42.844044" lon="0.466399">
        <ele>2019.0</ele>
        <time>2019-02-09T13:29:24Z</time>
      </trkpt>
      <trkpt lat="42.843950" lon="0.466365">
        <ele>2017.9</ele>
        <time>2019-02-09T13:29:34Z</time>
      </trkpt>
      <trkpt lat="42.843870" lon="0.466345">
        <ele>2018.3</ele>
        <time>2019-02-09T13:33:31Z</time>
      </trkpt>
      <trkpt lat="42.843767" lon="0.466323">
        <ele>2017.7</ele>
        <time>2019-02-09T13:33:41Z</time>
      </trkpt>
      <trkpt lat="42.843674" lon="0.466309">
        <ele>2016.7</ele>
        <time>2019-02-09T13:33:51Z</time>
      </trkpt>
      <trkpt lat="42.843578" lon="0.466297">
        <ele>2016.2</ele>
        <time>2019-02-09T13:34:01Z</time>
      </trkpt>
      <trkpt lat="42.843484" lon="0.466283">
        <ele>2015.8</ele>
        <time>2019-02-09T13:34:11Z</time>
      </trkpt>
      <trkpt lat="42.843392" lon="0.466257">
        <ele>2015.4</ele>
        <time>2019-02-09T13:34:20Z</time>
      </trkpt>
      <trkpt lat="42.843293" lon="0.466217">
        <ele>2015.2</ele>
        <time>2019-02-09T13:34:29Z</time>
      </trkpt>
      <trkpt lat="42.843203" lon="0.466164">
        <ele>2015.1</ele>
        <time>2019-02-09T13:34:39Z</time>
      </trkpt>
      <trkpt lat="42.843114" lon="0.466109">
        <ele>2015.2</ele>
        <time>2019-02-09T13:34:49Z</time>
      </trkpt>
      <trkpt lat="42.843026" lon="0.466065">
        <ele>2016.1</ele>
        <time>2019-02-09T13:34:59Z</time>
      </trkpt>
      <trkpt lat="42.842934" lon="0.466020">
        <ele>2017.0</ele>
        <time>2019-02-09T13:35:09Z</time>
      </trkpt>
      <trkpt lat="42.842841" lon="0.465993">
        <ele>2019.3</ele>
        <time>2019-02-09T13:35:21Z</time>
      </trkpt>
      <trkpt lat="42.842757" lon="0.465970">
        <ele>2021.3</ele>
        <time>2019-02-09T13:35:36Z</time>
      </trkpt>
      <trkpt lat="42.842669" lon="0.465937">
        <ele>2024.1</ele>
        <time>2019-02-09T13:35:54Z</time>
      </trkpt>
      <trkpt lat="42.842576" lon="0.465898">
        <ele>2026.7</ele>
        <time>2019-02-09T13:36:12Z</time>
      </trkpt>
      <trkpt lat="42.842488" lon="0.465874">
        <ele>2028.6</ele>
        <time>2019-02-09T13:36:28Z</time>
      </trkpt>
      <trkpt lat="42.842398" lon="0.465846">
        <ele>2031.4</ele>
        <time>2019-02-09T13:36:52Z</time>
      </trkpt>
      <trkpt lat="42.842295" lon="0.465816">
        <ele>2033.4</ele>
        <time>2019-02-09T13:37:10Z</time>
      </trkpt>
      <trkpt lat="42.842211" lon="0.465772">
        <ele>2035.1</ele>
        <time>2019-02-09T13:37:28Z</time>
      </trkpt>
      <trkpt lat="42.842135" lon="0.465809">
        <ele>2037.9</ele>
        <time>2019-02-09T13:37:47Z</time>
      </trkpt>
      <trkpt lat="42.842053" lon="0.465879">
        <ele>2041.2</ele>
        <time>2019-02-09T13:38:05Z</time>
      </trkpt>
      <trkpt lat="42.841952" lon="0.465869">
        <ele>2043.3</ele>
        <time>2019-02-09T13:38:21Z</time>
      </trkpt>
      <trkpt lat="42.841861" lon="0.465840">
        <ele>2044.8</ele>
        <time>2019-02-09T13:38:33Z</time>
      </trkpt>
      <trkpt lat="42.841774" lon="0.465822">
        <ele>2045.5</ele>
        <time>2019-02-09T13:38:44Z</time>
      </trkpt>
      <trkpt lat="42.841689" lon="0.465778">
        <ele>2045.5</ele>
        <time>2019-02-09T13:38:55Z</time>
      </trkpt>
      <trkpt lat="42.841604" lon="0.465732">
        <ele>2045.8</ele>
        <time>2019-02-09T13:39:07Z</time>
      </trkpt>
      <trkpt lat="42.841527" lon="0.465655">
        <ele>2047.1</ele>
        <time>2019-02-09T13:39:20Z</time>
      </trkpt>
      <trkpt lat="42.841446" lon="0.465617">
        <ele>2048.7</ele>
        <time>2019-02-09T13:39:33Z</time>
      </trkpt>
      <trkpt lat="42.841356" lon="0.465560">
        <ele>2051.4</ele>
        <time>2019-02-09T13:39:48Z</time>
      </trkpt>
      <trkpt lat="42.841276" lon="0.465480">
        <ele>2054.4</ele>
        <time>2019-02-09T13:40:04Z</time>
      </trkpt>
      <trkpt lat="42.841208" lon="0.465404">
        <ele>2056.7</ele>
        <time>2019-02-09T13:40:20Z</time>
      </trkpt>
      <trkpt lat="42.841143" lon="0.465316">
        <ele>2058.4</ele>
        <time>2019-02-09T13:40:34Z</time>
      </trkpt>
      <trkpt lat="42.841080" lon="0.465227">
        <ele>2060.2</ele>
        <time>2019-02-09T13:40:47Z</time>
      </trkpt>
      <trkpt lat="42.841007" lon="0.465138">
        <ele>2062.2</ele>
        <time>2019-02-09T13:41:02Z</time>
      </trkpt>
      <trkpt lat="42.840934" lon="0.465050">
        <ele>2064.3</ele>
        <time>2019-02-09T13:41:16Z</time>
      </trkpt>
      <trkpt lat="42.840852" lon="0.464983">
        <ele>2065.5</ele>
        <time>2019-02-09T13:41:28Z</time>
      </trkpt>
      <trkpt lat="42.840769" lon="0.464921">
        <ele>2066.6</ele>
        <time>2019-02-09T13:41:40Z</time>
      </trkpt>
      <trkpt lat="42.840690" lon="0.464847">
        <ele>2067.7</ele>
        <time>2019-02-09T13:41:52Z</time>
      </trkpt>
      <trkpt lat="42.840621" lon="0.464773">
        <ele>2068.9</ele>
        <time>2019-02-09T13:42:04Z</time>
      </trkpt>
      <trkpt lat="42.840548" lon="0.464695">
        <ele>2070.6</ele>
        <time>2019-02-09T13:42:19Z</time>
      </trkpt>
      <trkpt lat="42.840471" lon="0.464617">
        <ele>2073.7</ele>
        <time>2019-02-09T13:42:59Z</time>
      </trkpt>
      <trkpt lat="42.840388" lon="0.464535">
        <ele>2076.0</ele>
        <time>2019-02-09T13:43:13Z</time>
      </trkpt>
      <trkpt lat="42.840304" lon="0.464468">
        <ele>2078.6</ele>
        <time>2019-02-09T13:43:28Z</time>
      </trkpt>
      <trkpt lat="42.840221" lon="0.464413">
        <ele>2081.8</ele>
        <time>2019-02-09T13:43:45Z</time>
      </trkpt>
      <trkpt lat="42.840235" lon="0.464408">
        <ele>2083.3</ele>
        <time>2019-02-09T13:45:39Z</time>
      </trkpt>
      <trkpt lat="42.840199" lon="0.464360">
        <ele>2083.0</ele>
        <time>2019-02-09T13:46:20Z</time>
      </trkpt>
      <trkpt lat="42.840217" lon="0.464362">
        <ele>2082.4</ele>
        <time>2019-02-09T13:47:50Z</time>
      </trkpt>
      <trkpt lat="42.840159" lon="0.464347">
        <ele>2082.2</ele>
        <time>2019-02-09T13:48:41Z</time>
      </trkpt>
      <trkpt lat="42.840067" lon="0.464304">
        <ele>2081.4</ele>
        <time>2019-02-09T13:49:04Z</time>
      </trkpt>
      <trkpt lat="42.839987" lon="0.464237">
        <ele>2080.3</ele>
        <time>2019-02-09T13:49:21Z</time>
      </trkpt>
      <trkpt lat="42.839896" lon="0.464175">
        <ele>2079.8</ele>
        <time>2019-02-09T13:49:32Z</time>
      </trkpt>
      <trkpt lat="42.839820" lon="0.464096">
        <ele>2080.1</ele>
        <time>2019-02-09T13:49:44Z</time>
      </trkpt>
      <trkpt lat="42.839746" lon="0.464011">
        <ele>2080.7</ele>
        <time>2019-02-09T13:49:57Z</time>
      </trkpt>
      <trkpt lat="42.839654" lon="0.463972">
        <ele>2079.7</ele>
        <time>2019-02-09T13:50:08Z</time>
      </trkpt>
      <trkpt lat="42.839565" lon="0.463940">
        <ele>2078.1</ele>
        <time>2019-02-09T13:50:19Z</time>
      </trkpt>
      <trkpt lat="42.839477" lon="0.463900">
        <ele>2076.5</ele>
        <time>2019-02-09T13:50:30Z</time>
      </trkpt>
      <trkpt lat="42.839385" lon="0.463861">
        <ele>2074.9</ele>
        <time>2019-02-09T13:50:41Z</time>
      </trkpt>
      <trkpt lat="42.839293" lon="0.463834">
        <ele>2072.6</ele>
        <time>2019-02-09T13:50:53Z</time>
      </trkpt>
      <trkpt lat="42.839196" lon="0.463815">
        <ele>2070.9</ele>
        <time>2019-02-09T13:51:04Z</time>
      </trkpt>
      <trkpt lat="42.839102" lon="0.463769">
        <ele>2068.6</ele>
        <time>2019-02-09T13:51:17Z</time>
      </trkpt>
      <trkpt lat="42.839009" lon="0.463717">
        <ele>2066.9</ele>
        <time>2019-02-09T13:51:28Z</time>
      </trkpt>
      <trkpt lat="42.838924" lon="0.463650">
        <ele>2065.5</ele>
        <time>2019-02-09T13:51:38Z</time>
      </trkpt>
      <trkpt lat="42.838852" lon="0.463578">
        <ele>2064.1</ele>
        <time>2019-02-09T13:51:48Z</time>
      </trkpt>
      <trkpt lat="42.838773" lon="0.463506">
        <ele>2063.1</ele>
        <time>2019-02-09T13:51:58Z</time>
      </trkpt>
      <trkpt lat="42.838687" lon="0.463438">
        <ele>2061.4</ele>
        <time>2019-02-09T13:52:08Z</time>
      </trkpt>
      <trkpt lat="42.838609" lon="0.463370">
        <ele>2060.2</ele>
        <time>2019-02-09T13:52:17Z</time>
      </trkpt>
      <trkpt lat="42.838534" lon="0.463303">
        <ele>2059.3</ele>
        <time>2019-02-09T13:52:25Z</time>
      </trkpt>
      <trkpt lat="42.838462" lon="0.463233">
        <ele>2058.2</ele>
        <time>2019-02-09T13:52:34Z</time>
      </trkpt>
      <trkpt lat="42.838382" lon="0.463150">
        <ele>2057.4</ele>
        <time>2019-02-09T13:52:44Z</time>
      </trkpt>
      <trkpt lat="42.838310" lon="0.463066">
        <ele>2056.4</ele>
        <time>2019-02-09T13:52:54Z</time>
      </trkpt>
      <trkpt lat="42.838237" lon="0.462975">
        <ele>2054.9</ele>
        <time>2019-02-09T13:53:04Z</time>
      </trkpt>
      <trkpt lat="42.838158" lon="0.462897">
        <ele>2054.1</ele>
        <time>2019-02-09T13:53:14Z</time>
      </trkpt>
      <trkpt lat="42.838088" lon="0.462820">
        <ele>2053.4</ele>
        <time>2019-02-09T13:53:23Z</time>
      </trkpt>
      <trkpt lat="42.838011" lon="0.462743">
        <ele>2052.3</ele>
        <time>2019-02-09T13:53:33Z</time>
      </trkpt>
      <trkpt lat="42.837933" lon="0.462669">
        <ele>2051.3</ele>
        <time>2019-02-09T13:53:43Z</time>
      </trkpt>
      <trkpt lat="42.837860" lon="0.462588">
        <ele>2049.7</ele>
        <time>2019-02-09T13:54:14Z</time>
      </trkpt>
      <trkpt lat="42.837786" lon="0.462517">
        <ele>2048.7</ele>
        <time>2019-02-09T13:54:24Z</time>
      </trkpt>
      <trkpt lat="42.837700" lon="0.462445">
        <ele>2047.2</ele>
        <time>2019-02-09T13:54:35Z</time>
      </trkpt>
      <trkpt lat="42.837618" lon="0.462377">
        <ele>2045.6</ele>
        <time>2019-02-09T13:54:45Z</time>
      </trkpt>
      <trkpt lat="42.837537" lon="0.462305">
        <ele>2044.4</ele>
        <time>2019-02-09T13:54:55Z</time>
      </trkpt>
      <trkpt lat="42.837454" lon="0.462231">
        <ele>2043.1</ele>
        <time>2019-02-09T13:55:05Z</time>
      </trkpt>
      <trkpt lat="42.837372" lon="0.462175">
        <ele>2042.1</ele>
        <time>2019-02-09T13:55:15Z</time>
      </trkpt>
      <trkpt lat="42.837289" lon="0.462120">
        <ele>2041.6</ele>
        <time>2019-02-09T13:55:25Z</time>
      </trkpt>
      <trkpt lat="42.837204" lon="0.462045">
        <ele>2040.3</ele>
        <time>2019-02-09T13:55:35Z</time>
      </trkpt>
      <trkpt lat="42.837128" lon="0.461966">
        <ele>2039.6</ele>
        <time>2019-02-09T13:55:44Z</time>
      </trkpt>
      <trkpt lat="42.837055" lon="0.461899">
        <ele>2039.1</ele>
        <time>2019-02-09T13:55:53Z</time>
      </trkpt>
      <trkpt lat="42.836980" lon="0.461824">
        <ele>2038.2</ele>
        <time>2019-02-09T13:56:02Z</time>
      </trkpt>
      <trkpt lat="42.836902" lon="0.461751">
        <ele>2037.2</ele>
        <time>2019-02-09T13:56:11Z</time>
      </trkpt>
      <trkpt lat="42.836828" lon="0.461696">
        <ele>2036.3</ele>
        <time>2019-02-09T13:56:20Z</time>
      </trkpt>
      <trkpt lat="42.836744" lon="0.461630">
        <ele>2035.8</ele>
        <time>2019-02-09T13:56:30Z</time>
      </trkpt>
      <trkpt lat="42.836662" lon="0.461594">
        <ele>2035.3</ele>
        <time>2019-02-09T13:56:39Z</time>
      </trkpt>
      <trkpt lat="42.836575" lon="0.461538">
        <ele>2035.0</ele>
        <time>2019-02-09T13:56:49Z</time>
      </trkpt>
      <trkpt lat="42.836490" lon="0.461480">
        <ele>2034.4</ele>
        <time>2019-02-09T13:56:58Z</time>
      </trkpt>
      <trkpt lat="42.836406" lon="0.461418">
        <ele>2033.5</ele>
        <time>2019-02-09T13:57:07Z</time>
      </trkpt>
      <trkpt lat="42.836320" lon="0.461368">
        <ele>2032.7</ele>
        <time>2019-02-09T13:57:16Z</time>
      </trkpt>
      <trkpt lat="42.836243" lon="0.461305">
        <ele>2031.6</ele>
        <time>2019-02-09T13:57:24Z</time>
      </trkpt>
      <trkpt lat="42.836167" lon="0.461244">
        <ele>2030.4</ele>
        <time>2019-02-09T13:57:33Z</time>
      </trkpt>
      <trkpt lat="42.836085" lon="0.461172">
        <ele>2030.0</ele>
        <time>2019-02-09T13:57:42Z</time>
      </trkpt>
      <trkpt lat="42.835997" lon="0.461111">
        <ele>2030.1</ele>
        <time>2019-02-09T13:57:52Z</time>
      </trkpt>
      <trkpt lat="42.835915" lon="0.461050">
        <ele>2030.0</ele>
        <time>2019-02-09T13:58:01Z</time>
      </trkpt>
      <trkpt lat="42.835840" lon="0.460971">
        <ele>2028.8</ele>
        <time>2019-02-09T13:58:12Z</time>
      </trkpt>
      <trkpt lat="42.835751" lon="0.460925">
        <ele>2028.2</ele>
        <time>2019-02-09T13:58:20Z</time>
      </trkpt>
      <trkpt lat="42.835667" lon="0.460888">
        <ele>2026.9</ele>
        <time>2019-02-09T13:58:30Z</time>
      </trkpt>
      <trkpt lat="42.835608" lon="0.460848">
        <ele>2025.2</ele>
        <time>2019-02-09T14:01:22Z</time>
      </trkpt>
      <trkpt lat="42.835534" lon="0.460803">
        <ele>2024.7</ele>
        <time>2019-02-09T14:02:24Z</time>
      </trkpt>
      <trkpt lat="42.835449" lon="0.460740">
        <ele>2024.2</ele>
        <time>2019-02-09T14:02:38Z</time>
      </trkpt>
      <trkpt lat="42.835356" lon="0.460691">
        <ele>2023.6</ele>
        <time>2019-02-09T14:02:48Z</time>
      </trkpt>
      <trkpt lat="42.835271" lon="0.460652">
        <ele>2023.1</ele>
        <time>2019-02-09T14:02:57Z</time>
      </trkpt>
      <trkpt lat="42.835175" lon="0.460630">
        <ele>2022.5</ele>
        <time>2019-02-09T14:03:07Z</time>
      </trkpt>
      <trkpt lat="42.835081" lon="0.460598">
        <ele>2021.8</ele>
        <time>2019-02-09T14:03:18Z</time>
      </trkpt>
      <trkpt lat="42.834987" lon="0.460571">
        <ele>2021.6</ele>
        <time>2019-02-09T14:03:30Z</time>
      </trkpt>
      <trkpt lat="42.834901" lon="0.460532">
        <ele>2022.0</ele>
        <time>2019-02-09T14:03:42Z</time>
      </trkpt>
      <trkpt lat="42.834810" lon="0.460490">
        <ele>2022.1</ele>
        <time>2019-02-09T14:03:54Z</time>
      </trkpt>
      <trkpt lat="42.834718" lon="0.460464">
        <ele>2021.8</ele>
        <time>2019-02-09T14:04:04Z</time>
      </trkpt>
      <trkpt lat="42.834625" lon="0.460434">
        <ele>2021.3</ele>
        <time>2019-02-09T14:04:14Z</time>
      </trkpt>
      <trkpt lat="42.834523" lon="0.460423">
        <ele>2020.4</ele>
        <time>2019-02-09T14:04:24Z</time>
      </trkpt>
      <trkpt lat="42.834429" lon="0.460407">
        <ele>2019.9</ele>
        <time>2019-02-09T14:04:34Z</time>
      </trkpt>
      <trkpt lat="42.834340" lon="0.460409">
        <ele>2019.1</ele>
        <time>2019-02-09T14:04:46Z</time>
      </trkpt>
      <trkpt lat="42.834249" lon="0.460392">
        <ele>2018.9</ele>
        <time>2019-02-09T14:04:56Z</time>
      </trkpt>
      <trkpt lat="42.834154" lon="0.460368">
        <ele>2018.4</ele>
        <time>2019-02-09T14:05:06Z</time>
      </trkpt>
      <trkpt lat="42.834061" lon="0.460326">
        <ele>2017.9</ele>
        <time>2019-02-09T14:05:16Z</time>
      </trkpt>
      <trkpt lat="42.833967" lon="0.460291">
        <ele>2017.7</ele>
        <time>2019-02-09T14:05:26Z</time>
      </trkpt>
      <trkpt lat="42.833876" lon="0.460269">
        <ele>2017.4</ele>
        <time>2019-02-09T14:05:36Z</time>
      </trkpt>
      <trkpt lat="42.833781" lon="0.460236">
        <ele>2017.5</ele>
        <time>2019-02-09T14:05:48Z</time>
      </trkpt>
      <trkpt lat="42.833687" lon="0.460207">
        <ele>2017.6</ele>
        <time>2019-02-09T14:05:58Z</time>
      </trkpt>
      <trkpt lat="42.833595" lon="0.460165">
        <ele>2018.0</ele>
        <time>2019-02-09T14:06:08Z</time>
      </trkpt>
      <trkpt lat="42.833501" lon="0.460125">
        <ele>2018.4</ele>
        <time>2019-02-09T14:06:18Z</time>
      </trkpt>
      <trkpt lat="42.833409" lon="0.460094">
        <ele>2018.7</ele>
        <time>2019-02-09T14:06:28Z</time>
      </trkpt>
      <trkpt lat="42.833316" lon="0.460066">
        <ele>2018.8</ele>
        <time>2019-02-09T14:06:38Z</time>
      </trkpt>
      <trkpt lat="42.833219" lon="0.460061">
        <ele>2019.1</ele>
        <time>2019-02-09T14:06:49Z</time>
      </trkpt>
      <trkpt lat="42.833114" lon="0.460017">
        <ele>2020.9</ele>
        <time>2019-02-09T14:07:02Z</time>
      </trkpt>
      <trkpt lat="42.833013" lon="0.459974">
        <ele>2022.3</ele>
        <time>2019-02-09T14:07:14Z</time>
      </trkpt>
      <trkpt lat="42.832925" lon="0.459951">
        <ele>2023.5</ele>
        <time>2019-02-09T14:07:26Z</time>
      </trkpt>
      <trkpt lat="42.832843" lon="0.459907">
        <ele>2025.0</ele>
        <time>2019-02-09T14:07:40Z</time>
      </trkpt>
      <trkpt lat="42.832759" lon="0.459871">
        <ele>2026.4</ele>
        <time>2019-02-09T14:07:52Z</time>
      </trkpt>
      <trkpt lat="42.832674" lon="0.459835">
        <ele>2027.7</ele>
        <time>2019-02-09T14:08:05Z</time>
      </trkpt>
      <trkpt lat="42.832587" lon="0.459786">
        <ele>2029.4</ele>
        <time>2019-02-09T14:08:22Z</time>
      </trkpt>
      <trkpt lat="42.832503" lon="0.459748">
        <ele>2031.1</ele>
        <time>2019-02-09T14:08:39Z</time>
      </trkpt>
      <trkpt lat="42.832408" lon="0.459724">
        <ele>2033.9</ele>
        <time>2019-02-09T14:08:57Z</time>
      </trkpt>
      <trkpt lat="42.832309" lon="0.459692">
        <ele>2036.3</ele>
        <time>2019-02-09T14:09:15Z</time>
      </trkpt>
      <trkpt lat="42.832208" lon="0.459658">
        <ele>2038.7</ele>
        <time>2019-02-09T14:09:31Z</time>
      </trkpt>
      <trkpt lat="42.832124" lon="0.459622">
        <ele>2041.0</ele>
        <time>2019-02-09T14:09:47Z</time>
      </trkpt>
      <trkpt lat="42.832032" lon="0.459591">
        <ele>2042.9</ele>
        <time>2019-02-09T14:10:05Z</time>
      </trkpt>
      <trkpt lat="42.831939" lon="0.459555">
        <ele>2045.0</ele>
        <time>2019-02-09T14:10:22Z</time>
      </trkpt>
      <trkpt lat="42.831849" lon="0.459511">
        <ele>2046.4</ele>
        <time>2019-02-09T14:10:44Z</time>
      </trkpt>
      <trkpt lat="42.831755" lon="0.459479">
        <ele>2048.2</ele>
        <time>2019-02-09T14:10:57Z</time>
      </trkpt>
      <trkpt lat="42.831665" lon="0.459440">
        <ele>2050.0</ele>
        <time>2019-02-09T14:11:10Z</time>
      </trkpt>
      <trkpt lat="42.831572" lon="0.459415">
        <ele>2051.6</ele>
        <time>2019-02-09T14:11:23Z</time>
      </trkpt>
      <trkpt lat="42.831485" lon="0.459371">
        <ele>2053.3</ele>
        <time>2019-02-09T14:11:37Z</time>
      </trkpt>
      <trkpt lat="42.831394" lon="0.459340">
        <ele>2055.5</ele>
        <time>2019-02-09T14:11:53Z</time>
      </trkpt>
      <trkpt lat="42.831305" lon="0.459297">
        <ele>2057.4</ele>
        <time>2019-02-09T14:12:08Z</time>
      </trkpt>
      <trkpt lat="42.831218" lon="0.459264">
        <ele>2058.7</ele>
        <time>2019-02-09T14:12:20Z</time>
      </trkpt>
      <trkpt lat="42.831135" lon="0.459227">
        <ele>2059.8</ele>
        <time>2019-02-09T14:12:32Z</time>
      </trkpt>
      <trkpt lat="42.831045" lon="0.459198">
        <ele>2060.7</ele>
        <time>2019-02-09T14:12:44Z</time>
      </trkpt>
      <trkpt lat="42.830950" lon="0.459157">
        <ele>2061.5</ele>
        <time>2019-02-09T14:12:55Z</time>
      </trkpt>
      <trkpt lat="42.830862" lon="0.459122">
        <ele>2062.1</ele>
        <time>2019-02-09T14:13:05Z</time>
      </trkpt>
      <trkpt lat="42.830774" lon="0.459078">
        <ele>2063.4</ele>
        <time>2019-02-09T14:13:16Z</time>
      </trkpt>
      <trkpt lat="42.830688" lon="0.459030">
        <ele>2064.2</ele>
        <time>2019-02-09T14:13:26Z</time>
      </trkpt>
      <trkpt lat="42.830596" lon="0.458988">
        <ele>2064.6</ele>
        <time>2019-02-09T14:13:36Z</time>
      </trkpt>
      <trkpt lat="42.830507" lon="0.458955">
        <ele>2064.9</ele>
        <time>2019-02-09T14:13:46Z</time>
      </trkpt>
      <trkpt lat="42.830411" lon="0.458930">
        <ele>2064.6</ele>
        <time>2019-02-09T14:13:56Z</time>
      </trkpt>
      <trkpt lat="42.830320" lon="0.458896">
        <ele>2064.6</ele>
        <time>2019-02-09T14:14:06Z</time>
      </trkpt>
      <trkpt lat="42.830235" lon="0.458884">
        <ele>2065.5</ele>
        <time>2019-02-09T14:14:15Z</time>
      </trkpt>
      <trkpt lat="42.830140" lon="0.458874">
        <ele>2065.9</ele>
        <time>2019-02-09T14:14:25Z</time>
      </trkpt>
      <trkpt lat="42.830044" lon="0.458853">
        <ele>2066.2</ele>
        <time>2019-02-09T14:14:36Z</time>
      </trkpt>
      <trkpt lat="42.829965" lon="0.458847">
        <ele>2065.2</ele>
        <time>2019-02-09T14:19:05Z</time>
      </trkpt>
      <trkpt lat="42.829872" lon="0.458824">
        <ele>2065.8</ele>
        <time>2019-02-09T14:19:18Z</time>
      </trkpt>
      <trkpt lat="42.829809" lon="0.458764">
        <ele>2065.3</ele>
        <time>2019-02-09T14:19:32Z</time>
      </trkpt>
      <trkpt lat="42.829772" lon="0.458647">
        <ele>2064.3</ele>
        <time>2019-02-09T14:19:43Z</time>
      </trkpt>
      <trkpt lat="42.829698" lon="0.458573">
        <ele>2063.0</ele>
        <time>2019-02-09T14:19:53Z</time>
      </trkpt>
      <trkpt lat="42.829608" lon="0.458525">
        <ele>2062.0</ele>
        <time>2019-02-09T14:20:03Z</time>
      </trkpt>
      <trkpt lat="42.829509" lon="0.458528">
        <ele>2060.9</ele>
        <time>2019-02-09T14:20:13Z</time>
      </trkpt>
      <trkpt lat="42.829409" lon="0.458529">
        <ele>2060.1</ele>
        <time>2019-02-09T14:20:24Z</time>
      </trkpt>
      <trkpt lat="42.829315" lon="0.458524">
        <ele>2059.6</ele>
        <time>2019-02-09T14:20:35Z</time>
      </trkpt>
      <trkpt lat="42.829214" lon="0.458504">
        <ele>2058.9</ele>
        <time>2019-02-09T14:20:46Z</time>
      </trkpt>
      <trkpt lat="42.829118" lon="0.458490">
        <ele>2057.9</ele>
        <time>2019-02-09T14:20:57Z</time>
      </trkpt>
      <trkpt lat="42.829022" lon="0.458497">
        <ele>2056.9</ele>
        <time>2019-02-09T14:21:08Z</time>
      </trkpt>
      <trkpt lat="42.828923" lon="0.458484">
        <ele>2055.6</ele>
        <time>2019-02-09T14:21:19Z</time>
      </trkpt>
      <trkpt lat="42.828825" lon="0.458468">
        <ele>2054.7</ele>
        <time>2019-02-09T14:21:31Z</time>
      </trkpt>
      <trkpt lat="42.828724" lon="0.458462">
        <ele>2053.4</ele>
        <time>2019-02-09T14:21:41Z</time>
      </trkpt>
      <trkpt lat="42.828631" lon="0.458440">
        <ele>2051.9</ele>
        <time>2019-02-09T14:21:51Z</time>
      </trkpt>
      <trkpt lat="42.828540" lon="0.458402">
        <ele>2049.0</ele>
        <time>2019-02-09T14:24:03Z</time>
      </trkpt>
      <trkpt lat="42.828442" lon="0.458383">
        <ele>2047.5</ele>
        <time>2019-02-09T14:24:14Z</time>
      </trkpt>
      <trkpt lat="42.828347" lon="0.458363">
        <ele>2045.1</ele>
        <time>2019-02-09T14:24:26Z</time>
      </trkpt>
      <trkpt lat="42.828255" lon="0.458331">
        <ele>2042.8</ele>
        <time>2019-02-09T14:24:38Z</time>
      </trkpt>
      <trkpt lat="42.828158" lon="0.458325">
        <ele>2040.8</ele>
        <time>2019-02-09T14:24:49Z</time>
      </trkpt>
      <trkpt lat="42.828066" lon="0.458329">
        <ele>2038.8</ele>
        <time>2019-02-09T14:24:59Z</time>
      </trkpt>
      <trkpt lat="42.827968" lon="0.458325">
        <ele>2036.5</ele>
        <time>2019-02-09T14:25:10Z</time>
      </trkpt>
      <trkpt lat="42.827882" lon="0.458312">
        <ele>2033.6</ele>
        <time>2019-02-09T14:25:22Z</time>
      </trkpt>
      <trkpt lat="42.827792" lon="0.458312">
        <ele>2031.0</ele>
        <time>2019-02-09T14:25:36Z</time>
      </trkpt>
      <trkpt lat="42.827704" lon="0.458304">
        <ele>2028.3</ele>
        <time>2019-02-09T14:25:47Z</time>
      </trkpt>
      <trkpt lat="42.827612" lon="0.458300">
        <ele>2025.7</ele>
        <time>2019-02-09T14:25:58Z</time>
      </trkpt>
      <trkpt lat="42.827517" lon="0.458282">
        <ele>2023.2</ele>
        <time>2019-02-09T14:26:08Z</time>
      </trkpt>
      <trkpt lat="42.827421" lon="0.458292">
        <ele>2019.9</ele>
        <time>2019-02-09T14:26:19Z</time>
      </trkpt>
      <trkpt lat="42.827332" lon="0.458249">
        <ele>2017.2</ele>
        <time>2019-02-09T14:26:28Z</time>
      </trkpt>
      <trkpt lat="42.827248" lon="0.458216">
        <ele>2013.3</ele>
        <time>2019-02-09T14:26:41Z</time>
      </trkpt>
      <trkpt lat="42.827155" lon="0.458208">
        <ele>2010.8</ele>
        <time>2019-02-09T14:26:52Z</time>
      </trkpt>
      <trkpt lat="42.827065" lon="0.458190">
        <ele>2008.7</ele>
        <time>2019-02-09T14:27:02Z</time>
      </trkpt>
      <trkpt lat="42.826972" lon="0.458163">
        <ele>2007.2</ele>
        <time>2019-02-09T14:27:12Z</time>
      </trkpt>
      <trkpt lat="42.826882" lon="0.458137">
        <ele>2006.1</ele>
        <time>2019-02-09T14:27:38Z</time>
      </trkpt>
      <trkpt lat="42.826820" lon="0.458098">
        <ele>2004.9</ele>
        <time>2019-02-09T14:28:14Z</time>
      </trkpt>
      <trkpt lat="42.826727" lon="0.458066">
        <ele>2004.6</ele>
        <time>2019-02-09T14:28:25Z</time>
      </trkpt>
      <trkpt lat="42.826623" lon="0.458036">
        <ele>2003.5</ele>
        <time>2019-02-09T14:28:36Z</time>
      </trkpt>
      <trkpt lat="42.826527" lon="0.458008">
        <ele>2002.4</ele>
        <time>2019-02-09T14:28:47Z</time>
      </trkpt>
      <trkpt lat="42.826442" lon="0.457960">
        <ele>2001.7</ele>
        <time>2019-02-09T14:28:56Z</time>
      </trkpt>
      <trkpt lat="42.826354" lon="0.457911">
        <ele>2001.1</ele>
        <time>2019-02-09T14:29:06Z</time>
      </trkpt>
      <trkpt lat="42.826267" lon="0.457886">
        <ele>2000.5</ele>
        <time>2019-02-09T14:29:16Z</time>
      </trkpt>
      <trkpt lat="42.826164" lon="0.457876">
        <ele>1999.3</ele>
        <time>2019-02-09T14:29:26Z</time>
      </trkpt>
      <trkpt lat="42.826061" lon="0.457906">
        <ele>1998.5</ele>
        <time>2019-02-09T14:29:36Z</time>
      </trkpt>
      <trkpt lat="42.825965" lon="0.457945">
        <ele>1997.4</ele>
        <time>2019-02-09T14:29:45Z</time>
      </trkpt>
      <trkpt lat="42.825867" lon="0.457988">
        <ele>1995.9</ele>
        <time>2019-02-09T14:29:55Z</time>
      </trkpt>
      <trkpt lat="42.825791" lon="0.458063">
        <ele>1994.7</ele>
        <time>2019-02-09T14:30:04Z</time>
      </trkpt>
      <trkpt lat="42.825724" lon="0.458151">
        <ele>1993.5</ele>
        <time>2019-02-09T14:30:12Z</time>
      </trkpt>
      <trkpt lat="42.825644" lon="0.458218">
        <ele>1991.6</ele>
        <time>2019-02-09T14:30:21Z</time>
      </trkpt>
      <trkpt lat="42.825555" lon="0.458281">
        <ele>1989.1</ele>
        <time>2019-02-09T14:30:30Z</time>
      </trkpt>
      <trkpt lat="42.825465" lon="0.458316">
        <ele>1986.5</ele>
        <time>2019-02-09T14:30:39Z</time>
      </trkpt>
      <trkpt lat="42.825386" lon="0.458385">
        <ele>1983.4</ele>
        <time>2019-02-09T14:30:48Z</time>
      </trkpt>
      <trkpt lat="42.825294" lon="0.458425">
        <ele>1981.2</ele>
        <time>2019-02-09T14:30:57Z</time>
      </trkpt>
      <trkpt lat="42.825199" lon="0.458432">
        <ele>1978.9</ele>
        <time>2019-02-09T14:31:06Z</time>
      </trkpt>
      <trkpt lat="42.825102" lon="0.458431">
        <ele>1977.4</ele>
        <time>2019-02-09T14:31:15Z</time>
      </trkpt>
      <trkpt lat="42.825008" lon="0.458452">
        <ele>1976.2</ele>
        <time>2019-02-09T14:31:25Z</time>
      </trkpt>
      <trkpt lat="42.824917" lon="0.458451">
        <ele>1975.7</ele>
        <time>2019-02-09T14:31:36Z</time>
      </trkpt>
      <trkpt lat="42.824828" lon="0.458456">
        <ele>1976.5</ele>
        <time>2019-02-09T14:31:52Z</time>
      </trkpt>
      <trkpt lat="42.824737" lon="0.458458">
        <ele>1977.6</ele>
        <time>2019-02-09T14:32:06Z</time>
      </trkpt>
      <trkpt lat="42.824646" lon="0.458461">
        <ele>1978.0</ele>
        <time>2019-02-09T14:32:17Z</time>
      </trkpt>
      <trkpt lat="42.824548" lon="0.458435">
        <ele>1977.6</ele>
        <time>2019-02-09T14:32:28Z</time>
      </trkpt>
      <trkpt lat="42.824454" lon="0.458410">
        <ele>1977.1</ele>
        <time>2019-02-09T14:32:38Z</time>
      </trkpt>
      <trkpt lat="42.824361" lon="0.458390">
        <ele>1975.7</ele>
        <time>2019-02-09T14:32:48Z</time>
      </trkpt>
      <trkpt lat="42.824269" lon="0.458386">
        <ele>1973.3</ele>
        <time>2019-02-09T14:33:00Z</time>
      </trkpt>
      <trkpt lat="42.824178" lon="0.458360">
        <ele>1971.5</ele>
        <time>2019-02-09T14:33:10Z</time>
      </trkpt>
      <trkpt lat="42.824086" lon="0.458324">
        <ele>1968.5</ele>
        <time>2019-02-09T14:33:21Z</time>
      </trkpt>
      <trkpt lat="42.823997" lon="0.458295">
        <ele>1963.6</ele>
        <time>2019-02-09T14:33:37Z</time>
      </trkpt>
      <trkpt lat="42.823892" lon="0.458269">
        <ele>1960.2</ele>
        <time>2019-02-09T14:33:49Z</time>
      </trkpt>
      <trkpt lat="42.823797" lon="0.458250">
        <ele>1957.3</ele>
        <time>2019-02-09T14:33:59Z</time>
      </trkpt>
      <trkpt lat="42.823711" lon="0.458183">
        <ele>1953.6</ele>
        <time>2019-02-09T14:34:09Z</time>
      </trkpt>
      <trkpt lat="42.823651" lon="0.458203">
        <ele>1949.6</ele>
        <time>2019-02-09T14:34:46Z</time>
      </trkpt>
      <trkpt lat="42.823549" lon="0.458228">
        <ele>1947.2</ele>
        <time>2019-02-09T14:34:56Z</time>
      </trkpt>
      <trkpt lat="42.823458" lon="0.458259">
        <ele>1944.0</ele>
        <time>2019-02-09T14:35:05Z</time>
      </trkpt>
      <trkpt lat="42.823367" lon="0.458284">
        <ele>1940.7</ele>
        <time>2019-02-09T14:35:15Z</time>
      </trkpt>
      <trkpt lat="42.823273" lon="0.458306">
        <ele>1936.7</ele>
        <time>2019-02-09T14:35:25Z</time>
      </trkpt>
      <trkpt lat="42.823210" lon="0.458314">
        <ele>1932.0</ele>
        <time>2019-02-09T14:36:15Z</time>
      </trkpt>
      <trkpt lat="42.823138" lon="0.458396">
        <ele>1929.7</ele>
        <time>2019-02-09T14:36:27Z</time>
      </trkpt>
      <trkpt lat="42.823086" lon="0.458510">
        <ele>1927.5</ele>
        <time>2019-02-09T14:36:38Z</time>
      </trkpt>
      <trkpt lat="42.823031" lon="0.458620">
        <ele>1925.1</ele>
        <time>2019-02-09T14:36:48Z</time>
      </trkpt>
      <trkpt lat="42.822961" lon="0.458696">
        <ele>1921.8</ele>
        <time>2019-02-09T14:36:59Z</time>
      </trkpt>
      <trkpt lat="42.822917" lon="0.458787">
        <ele>1917.4</ele>
        <time>2019-02-09T14:37:12Z</time>
      </trkpt>
      <trkpt lat="42.822868" lon="0.458847">
        <ele>1913.9</ele>
        <time>2019-02-09T14:37:24Z</time>
      </trkpt>
      <trkpt lat="42.822862" lon="0.458969">
        <ele>1910.3</ele>
        <time>2019-02-09T14:37:36Z</time>
      </trkpt>
      <trkpt lat="42.822870" lon="0.459096">
        <ele>1907.0</ele>
        <time>2019-02-09T14:37:48Z</time>
      </trkpt>
      <trkpt lat="42.822878" lon="0.459217">
        <ele>1903.9</ele>
        <time>2019-02-09T14:38:11Z</time>
      </trkpt>
      <trkpt lat="42.822882" lon="0.459350">
        <ele>1901.8</ele>
        <time>2019-02-09T14:38:22Z</time>
      </trkpt>
      <trkpt lat="42.822902" lon="0.459474">
        <ele>1900.6</ele>
        <time>2019-02-09T14:38:31Z</time>
      </trkpt>
      <trkpt lat="42.822930" lon="0.459591">
        <ele>1899.4</ele>
        <time>2019-02-09T14:38:40Z</time>
      </trkpt>
      <trkpt lat="42.822953" lon="0.459718">
        <ele>1898.2</ele>
        <time>2019-02-09T14:38:50Z</time>
      </trkpt>
      <trkpt lat="42.822976" lon="0.459847">
        <ele>1896.7</ele>
        <time>2019-02-09T14:39:00Z</time>
      </trkpt>
      <trkpt lat="42.823009" lon="0.460022">
        <ele>1894.7</ele>
        <time>2019-02-09T14:42:03Z</time>
      </trkpt>
      <trkpt lat="42.822995" lon="0.460154">
        <ele>1893.0</ele>
        <time>2019-02-09T14:42:14Z</time>
      </trkpt>
      <trkpt lat="42.822979" lon="0.460299">
        <ele>1891.1</ele>
        <time>2019-02-09T14:42:33Z</time>
      </trkpt>
      <trkpt lat="42.822986" lon="0.460422">
        <ele>1889.6</ele>
        <time>2019-02-09T14:42:54Z</time>
      </trkpt>
      <trkpt lat="42.822959" lon="0.460550">
        <ele>1888.2</ele>
        <time>2019-02-09T14:43:08Z</time>
      </trkpt>
      <trkpt lat="42.822919" lon="0.460668">
        <ele>1887.0</ele>
        <time>2019-02-09T14:43:18Z</time>
      </trkpt>
      <trkpt lat="42.822891" lon="0.460796">
        <ele>1885.5</ele>
        <time>2019-02-09T14:43:29Z</time>
      </trkpt>
      <trkpt lat="42.822860" lon="0.460916">
        <ele>1884.7</ele>
        <time>2019-02-09T14:43:42Z</time>
      </trkpt>
      <trkpt lat="42.822801" lon="0.461023">
        <ele>1884.1</ele>
        <time>2019-02-09T14:43:59Z</time>
      </trkpt>
      <trkpt lat="42.822755" lon="0.461150">
        <ele>1883.3</ele>
        <time>2019-02-09T14:46:42Z</time>
      </trkpt>
      <trkpt lat="42.822720" lon="0.461265">
        <ele>1882.4</ele>
        <time>2019-02-09T14:46:52Z</time>
      </trkpt>
      <trkpt lat="42.822683" lon="0.461385">
        <ele>1881.0</ele>
        <time>2019-02-09T14:47:02Z</time>
      </trkpt>
      <trkpt lat="42.822642" lon="0.461502">
        <ele>1879.5</ele>
        <time>2019-02-09T14:47:13Z</time>
      </trkpt>
      <trkpt lat="42.822595" lon="0.461613">
        <ele>1878.3</ele>
        <time>2019-02-09T14:47:23Z</time>
      </trkpt>
      <trkpt lat="42.822539" lon="0.461720">
        <ele>1876.8</ele>
        <time>2019-02-09T14:47:33Z</time>
      </trkpt>
      <trkpt lat="42.822496" lon="0.461839">
        <ele>1874.8</ele>
        <time>2019-02-09T14:47:43Z</time>
      </trkpt>
      <trkpt lat="42.822460" lon="0.461959">
        <ele>1873.1</ele>
        <time>2019-02-09T14:47:53Z</time>
      </trkpt>
      <trkpt lat="42.822433" lon="0.462094">
        <ele>1871.4</ele>
        <time>2019-02-09T14:48:03Z</time>
      </trkpt>
      <trkpt lat="42.822421" lon="0.462215">
        <ele>1870.3</ele>
        <time>2019-02-09T14:48:17Z</time>
      </trkpt>
      <trkpt lat="42.822382" lon="0.462326">
        <ele>1869.0</ele>
        <time>2019-02-09T14:48:27Z</time>
      </trkpt>
      <trkpt lat="42.822341" lon="0.462436">
        <ele>1867.2</ele>
        <time>2019-02-09T14:48:38Z</time>
      </trkpt>
      <trkpt lat="42.822288" lon="0.462535">
        <ele>1865.5</ele>
        <time>2019-02-09T14:48:49Z</time>
      </trkpt>
      <trkpt lat="42.822224" lon="0.462639">
        <ele>1863.2</ele>
        <time>2019-02-09T14:48:59Z</time>
      </trkpt>
      <trkpt lat="42.822169" lon="0.462742">
        <ele>1860.4</ele>
        <time>2019-02-09T14:49:08Z</time>
      </trkpt>
      <trkpt lat="42.822107" lon="0.462843">
        <ele>1857.6</ele>
        <time>2019-02-09T14:49:17Z</time>
      </trkpt>
      <trkpt lat="42.822067" lon="0.462945">
        <ele>1854.3</ele>
        <time>2019-02-09T14:49:26Z</time>
      </trkpt>
      <trkpt lat="42.822022" lon="0.463063">
        <ele>1850.4</ele>
        <time>2019-02-09T14:49:37Z</time>
      </trkpt>
      <trkpt lat="42.821981" lon="0.463185">
        <ele>1846.9</ele>
        <time>2019-02-09T14:49:47Z</time>
      </trkpt>
      <trkpt lat="42.821953" lon="0.463310">
        <ele>1843.6</ele>
        <time>2019-02-09T14:49:57Z</time>
      </trkpt>
      <trkpt lat="42.821925" lon="0.463412">
        <ele>1840.2</ele>
        <time>2019-02-09T14:50:07Z</time>
      </trkpt>
      <trkpt lat="42.821871" lon="0.463495">
        <ele>1836.7</ele>
        <time>2019-02-09T14:50:17Z</time>
      </trkpt>
      <trkpt lat="42.821857" lon="0.463623">
        <ele>1833.4</ele>
        <time>2019-02-09T14:50:26Z</time>
      </trkpt>
      <trkpt lat="42.821828" lon="0.463666">
        <ele>1829.0</ele>
        <time>2019-02-09T14:51:53Z</time>
      </trkpt>
      <trkpt lat="42.821804" lon="0.463784">
        <ele>1826.1</ele>
        <time>2019-02-09T14:52:14Z</time>
      </trkpt>
      <trkpt lat="42.821788" lon="0.463903">
        <ele>1822.9</ele>
        <time>2019-02-09T14:52:28Z</time>
      </trkpt>
      <trkpt lat="42.821751" lon="0.463998">
        <ele>1818.6</ele>
        <time>2019-02-09T14:52:45Z</time>
      </trkpt>
      <trkpt lat="42.821712" lon="0.464094">
        <ele>1814.2</ele>
        <time>2019-02-09T14:53:16Z</time>
      </trkpt>
      <trkpt lat="42.821678" lon="0.464214">
        <ele>1810.7</ele>
        <time>2019-02-09T14:53:34Z</time>
      </trkpt>
      <trkpt lat="42.821652" lon="0.464328">
        <ele>1807.1</ele>
        <time>2019-02-09T14:53:49Z</time>
      </trkpt>
      <trkpt lat="42.821620" lon="0.464430">
        <ele>1802.2</ele>
        <time>2019-02-09T14:54:20Z</time>
      </trkpt>
      <trkpt lat="42.821584" lon="0.464544">
        <ele>1799.4</ele>
        <time>2019-02-09T14:54:37Z</time>
      </trkpt>
      <trkpt lat="42.821550" lon="0.464669">
        <ele>1793.9</ele>
        <time>2019-02-09T14:55:04Z</time>
      </trkpt>
      <trkpt lat="42.821497" lon="0.464750">
        <ele>1791.1</ele>
        <time>2019-02-09T14:55:30Z</time>
      </trkpt>
      <trkpt lat="42.821420" lon="0.464818">
        <ele>1786.7</ele>
        <time>2019-02-09T14:55:48Z</time>
      </trkpt>
      <trkpt lat="42.821337" lon="0.464888">
        <ele>1781.3</ele>
        <time>2019-02-09T14:56:09Z</time>
      </trkpt>
      <trkpt lat="42.821260" lon="0.464946">
        <ele>1776.3</ele>
        <time>2019-02-09T14:56:36Z</time>
      </trkpt>
      <trkpt lat="42.821172" lon="0.464996">
        <ele>1773.3</ele>
        <time>2019-02-09T14:56:46Z</time>
      </trkpt>
      <trkpt lat="42.821084" lon="0.465049">
        <ele>1768.2</ele>
        <time>2019-02-09T14:56:58Z</time>
      </trkpt>
      <trkpt lat="42.820998" lon="0.465077">
        <ele>1764.4</ele>
        <time>2019-02-09T14:57:09Z</time>
      </trkpt>
      <trkpt lat="42.820910" lon="0.465118">
        <ele>1760.4</ele>
        <time>2019-02-09T14:57:18Z</time>
      </trkpt>
      <trkpt lat="42.820816" lon="0.465091">
        <ele>1755.5</ele>
        <time>2019-02-09T14:57:28Z</time>
      </trkpt>
      <trkpt lat="42.820716" lon="0.465077">
        <ele>1751.8</ele>
        <time>2019-02-09T14:57:42Z</time>
      </trkpt>
      <trkpt lat="42.820623" lon="0.465066">
        <ele>1748.0</ele>
        <time>2019-02-09T14:57:54Z</time>
      </trkpt>
      <trkpt lat="42.820541" lon="0.465002">
        <ele>1745.4</ele>
        <time>2019-02-09T14:58:06Z</time>
      </trkpt>
      <trkpt lat="42.820439" lon="0.464972">
        <ele>1742.8</ele>
        <time>2019-02-09T14:58:27Z</time>
      </trkpt>
      <trkpt lat="42.820338" lon="0.464965">
        <ele>1739.8</ele>
        <time>2019-02-09T14:58:35Z</time>
      </trkpt>
      <trkpt lat="42.820244" lon="0.464952">
        <ele>1736.3</ele>
        <time>2019-02-09T14:58:42Z</time>
      </trkpt>
      <trkpt lat="42.820142" lon="0.464936">
        <ele>1733.2</ele>
        <time>2019-02-09T14:58:50Z</time>
      </trkpt>
      <trkpt lat="42.820051" lon="0.464932">
        <ele>1730.8</ele>
        <time>2019-02-09T14:58:57Z</time>
      </trkpt>
      <trkpt lat="42.819944" lon="0.464934">
        <ele>1728.1</ele>
        <time>2019-02-09T14:59:05Z</time>
      </trkpt>
      <trkpt lat="42.819852" lon="0.464942">
        <ele>1725.5</ele>
        <time>2019-02-09T14:59:12Z</time>
      </trkpt>
      <trkpt lat="42.819757" lon="0.464950">
        <ele>1723.2</ele>
        <time>2019-02-09T14:59:19Z</time>
      </trkpt>
      <trkpt lat="42.819662" lon="0.464975">
        <ele>1720.9</ele>
        <time>2019-02-09T14:59:26Z</time>
      </trkpt>
      <trkpt lat="42.819564" lon="0.464992">
        <ele>1718.0</ele>
        <time>2019-02-09T14:59:34Z</time>
      </trkpt>
      <trkpt lat="42.819475" lon="0.465029">
        <ele>1715.3</ele>
        <time>2019-02-09T14:59:44Z</time>
      </trkpt>
      <trkpt lat="42.819372" lon="0.465061">
        <ele>1712.9</ele>
        <time>2019-02-09T15:00:30Z</time>
      </trkpt>
      <trkpt lat="42.819286" lon="0.465110">
        <ele>1711.2</ele>
        <time>2019-02-09T15:00:38Z</time>
      </trkpt>
      <trkpt lat="42.819205" lon="0.465190">
        <ele>1709.0</ele>
        <time>2019-02-09T15:00:46Z</time>
      </trkpt>
      <trkpt lat="42.819133" lon="0.465272">
        <ele>1707.0</ele>
        <time>2019-02-09T15:00:55Z</time>
      </trkpt>
      <trkpt lat="42.819070" lon="0.465360">
        <ele>1705.1</ele>
        <time>2019-02-09T15:01:04Z</time>
      </trkpt>
      <trkpt lat="42.819012" lon="0.465458">
        <ele>1702.6</ele>
        <time>2019-02-09T15:01:13Z</time>
      </trkpt>
      <trkpt lat="42.818956" lon="0.465563">
        <ele>1700.3</ele>
        <time>2019-02-09T15:01:21Z</time>
      </trkpt>
      <trkpt lat="42.818881" lon="0.465653">
        <ele>1698.0</ele>
        <time>2019-02-09T15:01:28Z</time>
      </trkpt>
      <trkpt lat="42.818812" lon="0.465753">
        <ele>1695.4</ele>
        <time>2019-02-09T15:01:35Z</time>
      </trkpt>
      <trkpt lat="42.818747" lon="0.465858">
        <ele>1692.6</ele>
        <time>2019-02-09T15:01:43Z</time>
      </trkpt>
      <trkpt lat="42.818721" lon="0.465903">
        <ele>1689.4</ele>
        <time>2019-02-09T15:04:45Z</time>
      </trkpt>
      <trkpt lat="42.818664" lon="0.466000">
        <ele>1688.7</ele>
        <time>2019-02-09T15:05:10Z</time>
      </trkpt>
      <trkpt lat="42.818629" lon="0.465961">
        <ele>1687.9</ele>
        <time>2019-02-09T15:05:48Z</time>
      </trkpt>
      <trkpt lat="42.818604" lon="0.466020">
        <ele>1687.1</ele>
        <time>2019-02-09T15:06:21Z</time>
      </trkpt>
      <trkpt lat="42.818635" lon="0.466054">
        <ele>1686.7</ele>
        <time>2019-02-09T15:08:10Z</time>
      </trkpt>
      <trkpt lat="42.818577" lon="0.466099">
        <ele>1685.9</ele>
        <time>2019-02-09T15:10:00Z</time>
      </trkpt>
      <trkpt lat="42.818509" lon="0.466195">
        <ele>1684.7</ele>
        <time>2019-02-09T15:10:16Z</time>
      </trkpt>
      <trkpt lat="42.818473" lon="0.466320">
        <ele>1682.9</ele>
        <time>2019-02-09T15:10:30Z</time>
      </trkpt>
      <trkpt lat="42.818430" lon="0.466437">
        <ele>1681.1</ele>
        <time>2019-02-09T15:10:44Z</time>
      </trkpt>
      <trkpt lat="42.818382" lon="0.466531">
        <ele>1679.2</ele>
        <time>2019-02-09T15:10:56Z</time>
      </trkpt>
      <trkpt lat="42.818335" lon="0.466652">
        <ele>1677.1</ele>
        <time>2019-02-09T15:11:08Z</time>
      </trkpt>
      <trkpt lat="42.818300" lon="0.466765">
        <ele>1674.4</ele>
        <time>2019-02-09T15:11:20Z</time>
      </trkpt>
      <trkpt lat="42.818284" lon="0.466891">
        <ele>1672.2</ele>
        <time>2019-02-09T15:11:31Z</time>
      </trkpt>
      <trkpt lat="42.818243" lon="0.467012">
        <ele>1669.3</ele>
        <time>2019-02-09T15:11:44Z</time>
      </trkpt>
      <trkpt lat="42.818211" lon="0.467132">
        <ele>1667.0</ele>
        <time>2019-02-09T15:11:56Z</time>
      </trkpt>
      <trkpt lat="42.818186" lon="0.467263">
        <ele>1664.8</ele>
        <time>2019-02-09T15:12:06Z</time>
      </trkpt>
      <trkpt lat="42.818176" lon="0.467387">
        <ele>1661.9</ele>
        <time>2019-02-09T15:12:18Z</time>
      </trkpt>
      <trkpt lat="42.818166" lon="0.467508">
        <ele>1659.0</ele>
        <time>2019-02-09T15:12:30Z</time>
      </trkpt>
      <trkpt lat="42.818142" lon="0.467622">
        <ele>1655.9</ele>
        <time>2019-02-09T15:12:42Z</time>
      </trkpt>
      <trkpt lat="42.818116" lon="0.467740">
        <ele>1652.3</ele>
        <time>2019-02-09T15:12:57Z</time>
      </trkpt>
      <trkpt lat="42.818080" lon="0.467856">
        <ele>1648.8</ele>
        <time>2019-02-09T15:13:12Z</time>
      </trkpt>
      <trkpt lat="42.818012" lon="0.467963">
        <ele>1644.9</ele>
        <time>2019-02-09T15:13:29Z</time>
      </trkpt>
      <trkpt lat="42.817965" lon="0.468068">
        <ele>1642.4</ele>
        <time>2019-02-09T15:13:42Z</time>
      </trkpt>
      <trkpt lat="42.817941" lon="0.468185">
        <ele>1638.6</ele>
        <time>2019-02-09T15:13:57Z</time>
      </trkpt>
      <trkpt lat="42.817930" lon="0.468302">
        <ele>1635.7</ele>
        <time>2019-02-09T15:14:08Z</time>
      </trkpt>
      <trkpt lat="42.817962" lon="0.468434">
        <ele>1634.0</ele>
        <time>2019-02-09T15:14:21Z</time>
      </trkpt>
      <trkpt lat="42.817992" lon="0.468558">
        <ele>1632.5</ele>
        <time>2019-02-09T15:14:33Z</time>
      </trkpt>
      <trkpt lat="42.817972" lon="0.468683">
        <ele>1630.7</ele>
        <time>2019-02-09T15:14:44Z</time>
      </trkpt>
      <trkpt lat="42.817932" lon="0.468803">
        <ele>1628.8</ele>
        <time>2019-02-09T15:14:55Z</time>
      </trkpt>
      <trkpt lat="42.817881" lon="0.468915">
        <ele>1626.9</ele>
        <time>2019-02-09T15:15:06Z</time>
      </trkpt>
      <trkpt lat="42.817835" lon="0.469036">
        <ele>1624.9</ele>
        <time>2019-02-09T15:15:19Z</time>
      </trkpt>
      <trkpt lat="42.817782" lon="0.469138">
        <ele>1622.4</ele>
        <time>2019-02-09T15:15:30Z</time>
      </trkpt>
      <trkpt lat="42.817739" lon="0.469253">
        <ele>1620.3</ele>
        <time>2019-02-09T15:15:42Z</time>
      </trkpt>
      <trkpt lat="42.817690" lon="0.469375">
        <ele>1617.4</ele>
        <time>2019-02-09T15:15:55Z</time>
      </trkpt>
      <trkpt lat="42.817645" lon="0.469490">
        <ele>1615.1</ele>
        <time>2019-02-09T15:16:07Z</time>
      </trkpt>
      <trkpt lat="42.817606" lon="0.469602">
        <ele>1612.9</ele>
        <time>2019-02-09T15:16:18Z</time>
      </trkpt>
      <trkpt lat="42.817559" lon="0.469720">
        <ele>1610.4</ele>
        <time>2019-02-09T15:16:29Z</time>
      </trkpt>
      <trkpt lat="42.817507" lon="0.469820">
        <ele>1608.0</ele>
        <time>2019-02-09T15:16:42Z</time>
      </trkpt>
      <trkpt lat="42.817469" lon="0.469930">
        <ele>1606.1</ele>
        <time>2019-02-09T15:16:52Z</time>
      </trkpt>
      <trkpt lat="42.817419" lon="0.470042">
        <ele>1603.4</ele>
        <time>2019-02-09T15:17:03Z</time>
      </trkpt>
      <trkpt lat="42.817372" lon="0.470163">
        <ele>1600.9</ele>
        <time>2019-02-09T15:17:14Z</time>
      </trkpt>
      <trkpt lat="42.817329" lon="0.470287">
        <ele>1598.5</ele>
        <time>2019-02-09T15:17:26Z</time>
      </trkpt>
      <trkpt lat="42.817287" lon="0.470401">
        <ele>1597.0</ele>
        <time>2019-02-09T15:17:36Z</time>
      </trkpt>
      <trkpt lat="42.817244" lon="0.470524">
        <ele>1595.6</ele>
        <time>2019-02-09T15:17:47Z</time>
      </trkpt>
      <trkpt lat="42.817190" lon="0.470638">
        <ele>1594.5</ele>
        <time>2019-02-09T15:17:58Z</time>
      </trkpt>
      <trkpt lat="42.817144" lon="0.470748">
        <ele>1593.5</ele>
        <time>2019-02-09T15:18:08Z</time>
      </trkpt>
      <trkpt lat="42.817093" lon="0.470867">
        <ele>1592.4</ele>
        <time>2019-02-09T15:18:18Z</time>
      </trkpt>
      <trkpt lat="42.817045" lon="0.470969">
        <ele>1590.9</ele>
        <time>2019-02-09T15:18:29Z</time>
      </trkpt>
      <trkpt lat="42.816998" lon="0.471087">
        <ele>1589.4</ele>
        <time>2019-02-09T15:18:44Z</time>
      </trkpt>
      <trkpt lat="42.816947" lon="0.471191">
        <ele>1587.5</ele>
        <time>2019-02-09T15:18:56Z</time>
      </trkpt>
      <trkpt lat="42.816906" lon="0.471311">
        <ele>1585.2</ele>
        <time>2019-02-09T15:19:08Z</time>
      </trkpt>
      <trkpt lat="42.816855" lon="0.471417">
        <ele>1582.8</ele>
        <time>2019-02-09T15:19:19Z</time>
      </trkpt>
      <trkpt lat="42.816823" lon="0.471542">
        <ele>1580.6</ele>
        <time>2019-02-09T15:19:29Z</time>
      </trkpt>
      <trkpt lat="42.816783" lon="0.471656">
        <ele>1579.1</ele>
        <time>2019-02-09T15:19:38Z</time>
      </trkpt>
      <trkpt lat="42.816741" lon="0.471768">
        <ele>1577.9</ele>
        <time>2019-02-09T15:19:47Z</time>
      </trkpt>
      <trkpt lat="42.816691" lon="0.471891">
        <ele>1577.0</ele>
        <time>2019-02-09T15:19:57Z</time>
      </trkpt>
      <trkpt lat="42.816651" lon="0.472009">
        <ele>1576.0</ele>
        <time>2019-02-09T15:20:06Z</time>
      </trkpt>
      <trkpt lat="42.816613" lon="0.472128">
        <ele>1575.0</ele>
        <time>2019-02-09T15:20:15Z</time>
      </trkpt>
      <trkpt lat="42.816584" lon="0.472240">
        <ele>1574.2</ele>
        <time>2019-02-09T15:20:25Z</time>
      </trkpt>
      <trkpt lat="42.816557" lon="0.472366">
        <ele>1573.7</ele>
        <time>2019-02-09T15:20:35Z</time>
      </trkpt>
      <trkpt lat="42.816539" lon="0.472496">
        <ele>1573.1</ele>
        <time>2019-02-09T15:20:45Z</time>
      </trkpt>
      <trkpt lat="42.816521" lon="0.472618">
        <ele>1572.7</ele>
        <time>2019-02-09T15:20:55Z</time>
      </trkpt>
      <trkpt lat="42.816494" lon="0.472745">
        <ele>1573.1</ele>
        <time>2019-02-09T15:21:07Z</time>
      </trkpt>
      <trkpt lat="42.816471" lon="0.472861">
        <ele>1573.3</ele>
        <time>2019-02-09T15:21:22Z</time>
      </trkpt>
      <trkpt lat="42.816449" lon="0.472963">
        <ele>1573.1</ele>
        <time>2019-02-09T15:23:15Z</time>
      </trkpt>
      <trkpt lat="42.816435" lon="0.473086">
        <ele>1572.4</ele>
        <time>2019-02-09T15:23:35Z</time>
      </trkpt>
      <trkpt lat="42.816425" lon="0.473205">
        <ele>1571.5</ele>
        <time>2019-02-09T15:24:45Z</time>
      </trkpt>
      <trkpt lat="42.816399" lon="0.473328">
        <ele>1570.6</ele>
        <time>2019-02-09T15:24:57Z</time>
      </trkpt>
      <trkpt lat="42.816379" lon="0.473452">
        <ele>1569.3</ele>
        <time>2019-02-09T15:25:08Z</time>
      </trkpt>
      <trkpt lat="42.816368" lon="0.473595">
        <ele>1567.6</ele>
        <time>2019-02-09T15:25:23Z</time>
      </trkpt>
      <trkpt lat="42.816366" lon="0.473729">
        <ele>1566.6</ele>
        <time>2019-02-09T15:25:34Z</time>
      </trkpt>
      <trkpt lat="42.816356" lon="0.473866">
        <ele>1565.0</ele>
        <time>2019-02-09T15:25:45Z</time>
      </trkpt>
      <trkpt lat="42.816346" lon="0.473992">
        <ele>1564.0</ele>
        <time>2019-02-09T15:25:59Z</time>
      </trkpt>
      <trkpt lat="42.816344" lon="0.474124">
        <ele>1562.8</ele>
        <time>2019-02-09T15:26:10Z</time>
      </trkpt>
      <trkpt lat="42.816335" lon="0.474261">
        <ele>1561.5</ele>
        <time>2019-02-09T15:26:20Z</time>
      </trkpt>
      <trkpt lat="42.816339" lon="0.474398">
        <ele>1560.4</ele>
        <time>2019-02-09T15:26:30Z</time>
      </trkpt>
      <trkpt lat="42.816341" lon="0.474527">
        <ele>1559.3</ele>
        <time>2019-02-09T15:26:40Z</time>
      </trkpt>
      <trkpt lat="42.816348" lon="0.474642">
        <ele>1558.6</ele>
        <time>2019-02-09T15:26:49Z</time>
      </trkpt>
      <trkpt lat="42.816353" lon="0.474775">
        <ele>1557.3</ele>
        <time>2019-02-09T15:27:00Z</time>
      </trkpt>
      <trkpt lat="42.816353" lon="0.474899">
        <ele>1556.1</ele>
        <time>2019-02-09T15:27:10Z</time>
      </trkpt>
      <trkpt lat="42.816338" lon="0.475022">
        <ele>1554.5</ele>
        <time>2019-02-09T15:27:20Z</time>
      </trkpt>
      <trkpt lat="42.816321" lon="0.475142">
        <ele>1553.1</ele>
        <time>2019-02-09T15:27:30Z</time>
      </trkpt>
      <trkpt lat="42.816305" lon="0.475269">
        <ele>1551.1</ele>
        <time>2019-02-09T15:27:41Z</time>
      </trkpt>
      <trkpt lat="42.816306" lon="0.475388">
        <ele>1548.8</ele>
        <time>2019-02-09T15:27:52Z</time>
      </trkpt>
      <trkpt lat="42.816295" lon="0.475509">
        <ele>1546.9</ele>
        <time>2019-02-09T15:28:03Z</time>
      </trkpt>
      <trkpt lat="42.816297" lon="0.475633">
        <ele>1545.3</ele>
        <time>2019-02-09T15:28:13Z</time>
      </trkpt>
      <trkpt lat="42.816302" lon="0.475760">
        <ele>1543.9</ele>
        <time>2019-02-09T15:28:24Z</time>
      </trkpt>
      <trkpt lat="42.816305" lon="0.475886">
        <ele>1542.5</ele>
        <time>2019-02-09T15:28:34Z</time>
      </trkpt>
      <trkpt lat="42.816307" lon="0.476006">
        <ele>1540.3</ele>
        <time>2019-02-09T15:28:44Z</time>
      </trkpt>
      <trkpt lat="42.816314" lon="0.476140">
        <ele>1538.7</ele>
        <time>2019-02-09T15:28:53Z</time>
      </trkpt>
      <trkpt lat="42.816316" lon="0.476270">
        <ele>1537.0</ele>
        <time>2019-02-09T15:29:03Z</time>
      </trkpt>
      <trkpt lat="42.816321" lon="0.476389">
        <ele>1535.4</ele>
        <time>2019-02-09T15:29:13Z</time>
      </trkpt>
      <trkpt lat="42.816330" lon="0.476510">
        <ele>1533.7</ele>
        <time>2019-02-09T15:29:24Z</time>
      </trkpt>
      <trkpt lat="42.816397" lon="0.476601">
        <ele>1532.3</ele>
        <time>2019-02-09T15:29:35Z</time>
      </trkpt>
      <trkpt lat="42.816470" lon="0.476690">
        <ele>1531.3</ele>
        <time>2019-02-09T15:29:45Z</time>
      </trkpt>
      <trkpt lat="42.816537" lon="0.476773">
        <ele>1530.2</ele>
        <time>2019-02-09T15:29:55Z</time>
      </trkpt>
      <trkpt lat="42.816600" lon="0.476871">
        <ele>1528.2</ele>
        <time>2019-02-09T15:30:08Z</time>
      </trkpt>
      <trkpt lat="42.816671" lon="0.476961">
        <ele>1526.6</ele>
        <time>2019-02-09T15:30:20Z</time>
      </trkpt>
      <trkpt lat="42.816742" lon="0.477048">
        <ele>1525.3</ele>
        <time>2019-02-09T15:30:31Z</time>
      </trkpt>
      <trkpt lat="42.816813" lon="0.477137">
        <ele>1524.5</ele>
        <time>2019-02-09T15:30:41Z</time>
      </trkpt>
      <trkpt lat="42.816834" lon="0.477243">
        <ele>1522.0</ele>
        <time>2019-02-09T15:30:56Z</time>
      </trkpt>
      <trkpt lat="42.816835" lon="0.477385">
        <ele>1520.2</ele>
        <time>2019-02-09T15:31:09Z</time>
      </trkpt>
      <trkpt lat="42.816819" lon="0.477516">
        <ele>1517.3</ele>
        <time>2019-02-09T15:31:23Z</time>
      </trkpt>
      <trkpt lat="42.816816" lon="0.477649">
        <ele>1514.1</ele>
        <time>2019-02-09T15:31:37Z</time>
      </trkpt>
      <trkpt lat="42.816802" lon="0.477771">
        <ele>1510.6</ele>
        <time>2019-02-09T15:31:58Z</time>
      </trkpt>
      <trkpt lat="42.816793" lon="0.477906">
        <ele>1508.2</ele>
        <time>2019-02-09T15:32:13Z</time>
      </trkpt>
      <trkpt lat="42.816789" lon="0.478021">
        <ele>1506.1</ele>
        <time>2019-02-09T15:32:25Z</time>
      </trkpt>
      <trkpt lat="42.816778" lon="0.478145">
        <ele>1503.4</ele>
        <time>2019-02-09T15:32:37Z</time>
      </trkpt>
      <trkpt lat="42.816762" lon="0.478282">
        <ele>1501.3</ele>
        <time>2019-02-09T15:32:49Z</time>
      </trkpt>
      <trkpt lat="42.816737" lon="0.478429">
        <ele>1498.2</ele>
        <time>2019-02-09T15:33:03Z</time>
      </trkpt>
      <trkpt lat="42.816721" lon="0.478567">
        <ele>1495.6</ele>
        <time>2019-02-09T15:33:16Z</time>
      </trkpt>
      <trkpt lat="42.816719" lon="0.478716">
        <ele>1493.3</ele>
        <time>2019-02-09T15:33:27Z</time>
      </trkpt>
      <trkpt lat="42.816710" lon="0.478855">
        <ele>1492.1</ele>
        <time>2019-02-09T15:33:38Z</time>
      </trkpt>
      <trkpt lat="42.816697" lon="0.478994">
        <ele>1490.3</ele>
        <time>2019-02-09T15:33:52Z</time>
      </trkpt>
      <trkpt lat="42.816722" lon="0.479123">
        <ele>1489.6</ele>
        <time>2019-02-09T15:34:06Z</time>
      </trkpt>
      <trkpt lat="42.816783" lon="0.479221">
        <ele>1491.4</ele>
        <time>2019-02-09T15:34:20Z</time>
      </trkpt>
      <trkpt lat="42.816830" lon="0.479346">
        <ele>1493.0</ele>
        <time>2019-02-09T15:34:38Z</time>
      </trkpt>
      <trkpt lat="42.816823" lon="0.479491">
        <ele>1493.2</ele>
        <time>2019-02-09T15:34:58Z</time>
      </trkpt>
      <trkpt lat="42.816818" lon="0.479628">
        <ele>1492.8</ele>
        <time>2019-02-09T15:35:10Z</time>
      </trkpt>
      <trkpt lat="42.816819" lon="0.479769">
        <ele>1492.4</ele>
        <time>2019-02-09T15:35:22Z</time>
      </trkpt>
      <trkpt lat="42.816794" lon="0.479912">
        <ele>1490.5</ele>
        <time>2019-02-09T15:35:34Z</time>
      </trkpt>
      <trkpt lat="42.816772" lon="0.479981">
        <ele>1487.7</ele>
        <time>2019-02-09T15:36:30Z</time>
      </trkpt>
      <trkpt lat="42.816737" lon="0.480090">
        <ele>1486.8</ele>
        <time>2019-02-09T15:37:19Z</time>
      </trkpt>
      <trkpt lat="42.816692" lon="0.480193">
        <ele>1485.0</ele>
        <time>2019-02-09T15:37:39Z</time>
      </trkpt>
      <trkpt lat="42.816644" lon="0.480302">
        <ele>1481.7</ele>
        <time>2019-02-09T15:37:53Z</time>
      </trkpt>
      <trkpt lat="42.816616" lon="0.480433">
        <ele>1478.0</ele>
        <time>2019-02-09T15:38:09Z</time>
      </trkpt>
      <trkpt lat="42.816584" lon="0.480519">
        <ele>1474.4</ele>
        <time>2019-02-09T15:38:57Z</time>
      </trkpt>
      <trkpt lat="42.816548" lon="0.480627">
        <ele>1470.4</ele>
        <time>2019-02-09T15:39:15Z</time>
      </trkpt>
      <trkpt lat="42.816495" lon="0.480715">
        <ele>1465.5</ele>
        <time>2019-02-09T15:41:27Z</time>
      </trkpt>
      <trkpt lat="42.816463" lon="0.480838">
        <ele>1459.1</ele>
        <time>2019-02-09T15:42:08Z</time>
      </trkpt>
      <trkpt lat="42.816435" lon="0.480952">
        <ele>1453.3</ele>
        <time>2019-02-09T15:42:34Z</time>
      </trkpt>
      <trkpt lat="42.816390" lon="0.481023">
        <ele>1448.2</ele>
        <time>2019-02-09T15:43:25Z</time>
      </trkpt>
      <trkpt lat="42.816317" lon="0.481056">
        <ele>1442.8</ele>
        <time>2019-02-09T15:44:05Z</time>
      </trkpt>
      <trkpt lat="42.816225" lon="0.481088">
        <ele>1438.6</ele>
        <time>2019-02-09T15:44:44Z</time>
      </trkpt>
      <trkpt lat="42.816158" lon="0.481099">
        <ele>1439.7</ele>
        <time>2019-02-09T15:52:04Z</time>
      </trkpt>
      <trkpt lat="42.816064" lon="0.481171">
        <ele>1437.7</ele>
        <time>2019-02-09T15:52:25Z</time>
      </trkpt>
      <trkpt lat="42.815990" lon="0.481289">
        <ele>1435.1</ele>
        <time>2019-02-09T15:52:35Z</time>
      </trkpt>
      <trkpt lat="42.815916" lon="0.481386">
        <ele>1431.0</ele>
        <time>2019-02-09T15:52:46Z</time>
      </trkpt>
      <trkpt lat="42.815824" lon="0.481443">
        <ele>1427.8</ele>
        <time>2019-02-09T15:53:12Z</time>
      </trkpt>
      <trkpt lat="42.815762" lon="0.481529">
        <ele>1425.0</ele>
        <time>2019-02-09T15:53:26Z</time>
      </trkpt>
      <trkpt lat="42.815697" lon="0.481618">
        <ele>1422.2</ele>
        <time>2019-02-09T15:53:42Z</time>
      </trkpt>
      <trkpt lat="42.815632" lon="0.481701">
        <ele>1418.5</ele>
        <time>2019-02-09T15:53:51Z</time>
      </trkpt>
      <trkpt lat="42.815560" lon="0.481781">
        <ele>1413.4</ele>
        <time>2019-02-09T15:54:01Z</time>
      </trkpt>
      <trkpt lat="42.815487" lon="0.481864">
        <ele>1408.9</ele>
        <time>2019-02-09T15:54:11Z</time>
      </trkpt>
      <trkpt lat="42.815414" lon="0.481946">
        <ele>1404.5</ele>
        <time>2019-02-09T15:54:22Z</time>
      </trkpt>
      <trkpt lat="42.815357" lon="0.482045">
        <ele>1400.9</ele>
        <time>2019-02-09T15:54:33Z</time>
      </trkpt>
      <trkpt lat="42.815278" lon="0.482153">
        <ele>1394.8</ele>
        <time>2019-02-09T15:56:27Z</time>
      </trkpt>
      <trkpt lat="42.815208" lon="0.482233">
        <ele>1392.8</ele>
        <time>2019-02-09T15:56:35Z</time>
      </trkpt>
      <trkpt lat="42.815144" lon="0.482321">
        <ele>1389.8</ele>
        <time>2019-02-09T15:56:43Z</time>
      </trkpt>
      <trkpt lat="42.815080" lon="0.482424">
        <ele>1385.7</ele>
        <time>2019-02-09T15:56:51Z</time>
      </trkpt>
      <trkpt lat="42.815014" lon="0.482522">
        <ele>1382.2</ele>
        <time>2019-02-09T15:56:58Z</time>
      </trkpt>
      <trkpt lat="42.814955" lon="0.482627">
        <ele>1378.7</ele>
        <time>2019-02-09T15:57:05Z</time>
      </trkpt>
      <trkpt lat="42.814893" lon="0.482739">
        <ele>1374.8</ele>
        <time>2019-02-09T15:57:13Z</time>
      </trkpt>
      <trkpt lat="42.814846" lon="0.482861">
        <ele>1370.8</ele>
        <time>2019-02-09T15:57:20Z</time>
      </trkpt>
      <trkpt lat="42.814774" lon="0.482958">
        <ele>1367.2</ele>
        <time>2019-02-09T15:57:29Z</time>
      </trkpt>
      <trkpt lat="42.814701" lon="0.483054">
        <ele>1364.1</ele>
        <time>2019-02-09T15:57:38Z</time>
      </trkpt>
      <trkpt lat="42.814636" lon="0.483153">
        <ele>1361.3</ele>
        <time>2019-02-09T15:57:46Z</time>
      </trkpt>
      <trkpt lat="42.814580" lon="0.483259">
        <ele>1358.6</ele>
        <time>2019-02-09T15:57:54Z</time>
      </trkpt>
      <trkpt lat="42.814536" lon="0.483366">
        <ele>1356.1</ele>
        <time>2019-02-09T15:58:01Z</time>
      </trkpt>
      <trkpt lat="42.814492" lon="0.483472">
        <ele>1353.5</ele>
        <time>2019-02-09T15:58:08Z</time>
      </trkpt>
      <trkpt lat="42.814443" lon="0.483588">
        <ele>1349.9</ele>
        <time>2019-02-09T15:58:17Z</time>
      </trkpt>
      <trkpt lat="42.814393" lon="0.483676">
        <ele>1346.4</ele>
        <time>2019-02-09T15:58:32Z</time>
      </trkpt>
      <trkpt lat="42.814328" lon="0.483737">
        <ele>1344.4</ele>
        <time>2019-02-09T15:58:46Z</time>
      </trkpt>
      <trkpt lat="42.814339" lon="0.483781">
        <ele>1342.7</ele>
        <time>2019-02-09T16:05:17Z</time>
      </trkpt>
      <trkpt lat="42.814317" lon="0.483901">
        <ele>1340.7</ele>
        <time>2019-02-09T16:05:34Z</time>
      </trkpt>
      <trkpt lat="42.814303" lon="0.484009">
        <ele>1337.2</ele>
        <time>2019-02-09T16:05:52Z</time>
      </trkpt>
      <trkpt lat="42.814297" lon="0.484112">
        <ele>1335.4</ele>
        <time>2019-02-09T16:06:10Z</time>
      </trkpt>
      <trkpt lat="42.814305" lon="0.484238">
        <ele>1332.5</ele>
        <time>2019-02-09T16:06:21Z</time>
      </trkpt>
      <trkpt lat="42.814291" lon="0.484355">
        <ele>1329.4</ele>
        <time>2019-02-09T16:06:31Z</time>
      </trkpt>
      <trkpt lat="42.814252" lon="0.484467">
        <ele>1326.3</ele>
        <time>2019-02-09T16:06:43Z</time>
      </trkpt>
      <trkpt lat="42.814229" lon="0.484589">
        <ele>1323.5</ele>
        <time>2019-02-09T16:06:56Z</time>
      </trkpt>
      <trkpt lat="42.814209" lon="0.484717">
        <ele>1321.0</ele>
        <time>2019-02-09T16:07:07Z</time>
      </trkpt>
      <trkpt lat="42.814181" lon="0.484834">
        <ele>1318.1</ele>
        <time>2019-02-09T16:07:18Z</time>
      </trkpt>
      <trkpt lat="42.814160" lon="0.484971">
        <ele>1315.5</ele>
        <time>2019-02-09T16:07:29Z</time>
      </trkpt>
      <trkpt lat="42.814173" lon="0.485106">
        <ele>1312.5</ele>
        <time>2019-02-09T16:07:40Z</time>
      </trkpt>
      <trkpt lat="42.814202" lon="0.485244">
        <ele>1309.8</ele>
        <time>2019-02-09T16:08:00Z</time>
      </trkpt>
      <trkpt lat="42.814180" lon="0.485386">
        <ele>1306.4</ele>
        <time>2019-02-09T16:08:14Z</time>
      </trkpt>
      <trkpt lat="42.814198" lon="0.485547">
        <ele>1304.4</ele>
        <time>2019-02-09T16:08:25Z</time>
      </trkpt>
      <trkpt lat="42.814204" lon="0.485709">
        <ele>1301.6</ele>
        <time>2019-02-09T16:08:37Z</time>
      </trkpt>
      <trkpt lat="42.814214" lon="0.485851">
        <ele>1299.6</ele>
        <time>2019-02-09T16:08:47Z</time>
      </trkpt>
      <trkpt lat="42.814200" lon="0.485973">
        <ele>1297.8</ele>
        <time>2019-02-09T16:08:57Z</time>
      </trkpt>
      <trkpt lat="42.814184" lon="0.486098">
        <ele>1295.7</ele>
        <time>2019-02-09T16:09:07Z</time>
      </trkpt>
      <trkpt lat="42.814196" lon="0.486227">
        <ele>1293.7</ele>
        <time>2019-02-09T16:09:18Z</time>
      </trkpt>
      <trkpt lat="42.814258" lon="0.486325">
        <ele>1291.6</ele>
        <time>2019-02-09T16:09:32Z</time>
      </trkpt>
      <trkpt lat="42.814347" lon="0.486333">
        <ele>1289.7</ele>
        <time>2019-02-09T16:09:45Z</time>
      </trkpt>
      <trkpt lat="42.814388" lon="0.486454">
        <ele>1286.4</ele>
        <time>2019-02-09T16:09:57Z</time>
      </trkpt>
      <trkpt lat="42.814431" lon="0.486611">
        <ele>1280.0</ele>
        <time>2019-02-09T16:10:08Z</time>
      </trkpt>
      <trkpt lat="42.814448" lon="0.486750">
        <ele>1274.3</ele>
        <time>2019-02-09T16:10:19Z</time>
      </trkpt>
      <trkpt lat="42.814393" lon="0.486811">
        <ele>1270.2</ele>
        <time>2019-02-09T16:10:56Z</time>
      </trkpt>
      <trkpt lat="42.814305" lon="0.486931">
        <ele>1268.5</ele>
        <time>2019-02-09T16:11:09Z</time>
      </trkpt>
      <trkpt lat="42.814219" lon="0.487064">
        <ele>1266.7</ele>
        <time>2019-02-09T16:11:21Z</time>
      </trkpt>
      <trkpt lat="42.814143" lon="0.487175">
        <ele>1265.1</ele>
        <time>2019-02-09T16:11:32Z</time>
      </trkpt>
      <trkpt lat="42.814085" lon="0.487166">
        <ele>1262.9</ele>
        <time>2019-02-09T16:12:11Z</time>
      </trkpt>
      <trkpt lat="42.814037" lon="0.487173">
        <ele>1262.6</ele>
        <time>2019-02-09T16:12:58Z</time>
      </trkpt>
      <trkpt lat="42.813940" lon="0.487169">
        <ele>1261.7</ele>
        <time>2019-02-09T16:13:08Z</time>
      </trkpt>
      <trkpt lat="42.813860" lon="0.487101">
        <ele>1260.3</ele>
        <time>2019-02-09T16:13:18Z</time>
      </trkpt>
      <trkpt lat="42.813795" lon="0.487009">
        <ele>1258.5</ele>
        <time>2019-02-09T16:13:28Z</time>
      </trkpt>
      <trkpt lat="42.813683" lon="0.486995">
        <ele>1256.6</ele>
        <time>2019-02-09T16:13:38Z</time>
      </trkpt>
      <trkpt lat="42.813580" lon="0.486964">
        <ele>1253.9</ele>
        <time>2019-02-09T16:13:47Z</time>
      </trkpt>
      <trkpt lat="42.813590" lon="0.487065">
        <ele>1252.0</ele>
        <time>2019-02-09T16:13:57Z</time>
      </trkpt>
      <trkpt lat="42.813661" lon="0.487188">
        <ele>1250.7</ele>
        <time>2019-02-09T16:14:05Z</time>
      </trkpt>
      <trkpt lat="42.813725" lon="0.487290">
        <ele>1249.7</ele>
        <time>2019-02-09T16:14:13Z</time>
      </trkpt>
      <trkpt lat="42.813778" lon="0.487396">
        <ele>1248.8</ele>
        <time>2019-02-09T16:14:21Z</time>
      </trkpt>
      <trkpt lat="42.813843" lon="0.487485">
        <ele>1248.0</ele>
        <time>2019-02-09T16:14:28Z</time>
      </trkpt>
      <trkpt lat="42.813888" lon="0.487590">
        <ele>1247.0</ele>
        <time>2019-02-09T16:14:36Z</time>
      </trkpt>
      <trkpt lat="42.813955" lon="0.487672">
        <ele>1246.0</ele>
        <time>2019-02-09T16:14:44Z</time>
      </trkpt>
      <trkpt lat="42.814033" lon="0.487744">
        <ele>1245.3</ele>
        <time>2019-02-09T16:14:52Z</time>
      </trkpt>
      <trkpt lat="42.814113" lon="0.487826">
        <ele>1244.5</ele>
        <time>2019-02-09T16:15:00Z</time>
      </trkpt>
      <trkpt lat="42.814191" lon="0.487892">
        <ele>1243.7</ele>
        <time>2019-02-09T16:15:07Z</time>
      </trkpt>
      <trkpt lat="42.814274" lon="0.487955">
        <ele>1242.7</ele>
        <time>2019-02-09T16:15:14Z</time>
      </trkpt>
      <trkpt lat="42.814345" lon="0.488048">
        <ele>1242.0</ele>
        <time>2019-02-09T16:15:21Z</time>
      </trkpt>
    </trkseg>
  </trk>
</gpx>

